UAE337 OMDB-RPLL
Flight info
| Callsign | UAE337 |
|---|---|
| Flight time | 7h 42m |
| Altitude | 35000 |
| Route | IVURO M428 MUNGA A777 VAXIM L301 KARKU M638 EXOLU L505 BUSBO L301 DOGEM/N0495F370 L301 BKK/K0913F370 DCT PCA L628 VEPAM/K0900F390 L628 MESOX/N0486F390 L628 ARESI/N0494F370 L628 GUKUM DCT LUBAN LUBAN5R |
| Aircraft | B77W/H-SDE1E2E3FGHIJ2J3J4J5M1RWXY/LB1D1 |
Departure
| Time | 2026-05-05 00:41 |
|---|---|
| Airport | Dubai International Airport (OMDB) |
Arrival
| Time | 2026-05-05 08:23 |
|---|---|
| Airport | Ninoy Aquino International Airport (RPLL) |
| Time | Latitude | Longitude | Altitude | Speed | Heading |
|---|---|---|---|---|---|
| 2026-05-05 00:21 | 25.25202 | 55.35719 | 26 ft | 0 kts | 212° |
| 2026-05-05 00:29 | 25.25210 | 55.35725 | 26 ft | 2 kts | 212° |
| 2026-05-05 00:30 | 25.25224 | 55.35734 | 32 ft | 2 kts | 212° |
| 2026-05-05 00:30 | 25.25237 | 55.35743 | 32 ft | 2 kts | 212° |
| 2026-05-05 00:30 | 25.25251 | 55.35753 | 32 ft | 2 kts | 212° |
| 2026-05-05 00:30 | 25.25265 | 55.35762 | 32 ft | 2 kts | 222° |
| 2026-05-05 00:31 | 25.25275 | 55.35775 | 32 ft | 2 kts | 238° |
| 2026-05-05 00:31 | 25.25280 | 55.35792 | 32 ft | 2 kts | 287° |
| 2026-05-05 00:31 | 25.25279 | 55.35797 | 32 ft | 0 kts | 301° |
| 2026-05-05 00:35 | 25.25279 | 55.35796 | 32 ft | 2 kts | 301° |
| 2026-05-05 00:35 | 25.25297 | 55.35764 | 15 ft | 0 kts | 301° |
| 2026-05-05 00:37 | 25.25322 | 55.35723 | 29 ft | 17 kts | 308° |
| 2026-05-05 00:37 | 25.25377 | 55.35692 | 29 ft | 8 kts | 4° |
| 2026-05-05 00:37 | 25.25407 | 55.35704 | 30 ft | 0 kts | 28° |
| 2026-05-05 00:38 | 25.25424 | 55.35715 | 28 ft | 7 kts | 29° |
| 2026-05-05 00:38 | 25.25464 | 55.35741 | 29 ft | 7 kts | 31° |
| 2026-05-05 00:38 | 25.25505 | 55.35767 | 30 ft | 7 kts | 31° |
| 2026-05-05 00:38 | 25.25507 | 55.35769 | 26 ft | 0 kts | 31° |
| 2026-05-05 00:39 | 25.25534 | 55.35786 | 27 ft | 7 kts | 31° |
| 2026-05-05 00:39 | 25.25591 | 55.35863 | 30 ft | 17 kts | 89° |
| 2026-05-05 00:40 | 25.25558 | 55.35942 | 31 ft | 0 kts | 122° |
| 2026-05-05 00:40 | 25.25512 | 55.36022 | 30 ft | 33 kts | 122° |
| 2026-05-05 00:40 | 25.25226 | 55.36528 | 26 ft | 123 kts | 121° |
| 2026-05-05 00:41 | 25.24595 | 55.37675 | 39 ft | 220 kts | 123° |
| 2026-05-05 00:41 | 25.23750 | 55.39180 | 1046 ft | 236 kts | 122° |
| 2026-05-05 00:41 | 25.22882 | 55.40756 | 2708 ft | 241 kts | 121° |
| 2026-05-05 00:41 | 25.21970 | 55.42359 | 3741 ft | 249 kts | 121° |
| 2026-05-05 00:42 | 25.21055 | 55.43958 | 3884 ft | 240 kts | 119° |
| 2026-05-05 00:42 | 25.20254 | 55.45538 | 4008 ft | 240 kts | 105° |
| 2026-05-05 00:42 | 25.20077 | 55.47336 | 4065 ft | 239 kts | 87° |
| 2026-05-05 00:42 | 25.20049 | 55.49195 | 4023 ft | 243 kts | 89° |
| 2026-05-05 00:43 | 25.19990 | 55.51056 | 4064 ft | 244 kts | 90° |
| 2026-05-05 00:43 | 25.19934 | 55.52923 | 4624 ft | 244 kts | 89° |
| 2026-05-05 00:43 | 25.19879 | 55.54812 | 5264 ft | 249 kts | 89° |
| 2026-05-05 00:43 | 25.19825 | 55.56761 | 5841 ft | 256 kts | 90° |
| 2026-05-05 00:44 | 25.19769 | 55.58723 | 6583 ft | 255 kts | 90° |
| 2026-05-05 00:44 | 25.19869 | 55.60664 | 7410 ft | 256 kts | 70° |
| 2026-05-05 00:44 | 25.20771 | 55.62346 | 8432 ft | 257 kts | 44° |
| 2026-05-05 00:44 | 25.22119 | 55.63665 | 9447 ft | 262 kts | 40° |
| 2026-05-05 00:45 | 25.23528 | 55.64977 | 10388 ft | 268 kts | 39° |
| 2026-05-05 00:45 | 25.24973 | 55.66318 | 11312 ft | 275 kts | 39° |
| 2026-05-05 00:45 | 25.26457 | 55.67696 | 12284 ft | 283 kts | 39° |
| 2026-05-05 00:45 | 25.27979 | 55.69115 | 13268 ft | 289 kts | 38° |
| 2026-05-05 00:46 | 25.29535 | 55.70570 | 14183 ft | 296 kts | 38° |
| 2026-05-05 00:46 | 25.31118 | 55.72058 | 15111 ft | 301 kts | 38° |
| 2026-05-05 00:46 | 25.32728 | 55.73572 | 16038 ft | 306 kts | 38° |
| 2026-05-05 00:46 | 25.34350 | 55.75124 | 16912 ft | 311 kts | 43° |
| 2026-05-05 00:47 | 25.35548 | 55.77151 | 17612 ft | 324 kts | 72° |
| 2026-05-05 00:47 | 25.35952 | 55.79615 | 18343 ft | 328 kts | 83° |
| 2026-05-05 00:47 | 25.36188 | 55.82145 | 19068 ft | 333 kts | 84° |
| 2026-05-05 00:47 | 25.36421 | 55.84702 | 19849 ft | 336 kts | 84° |
| 2026-05-05 00:48 | 25.36672 | 55.87284 | 20576 ft | 341 kts | 83° |
| 2026-05-05 00:48 | 25.36939 | 55.89913 | 21217 ft | 348 kts | 83° |
| 2026-05-05 00:48 | 25.37217 | 55.92591 | 21870 ft | 353 kts | 83° |
| 2026-05-05 00:48 | 25.37225 | 55.95317 | 22418 ft | 357 kts | 102° |
| 2026-05-05 00:49 | 25.36653 | 55.98010 | 22935 ft | 364 kts | 105° |
| 2026-05-05 00:49 | 25.36013 | 56.00739 | 23517 ft | 369 kts | 105° |
| 2026-05-05 00:49 | 25.35374 | 56.03511 | 24043 ft | 374 kts | 105° |
| 2026-05-05 00:49 | 25.34747 | 56.06326 | 24550 ft | 380 kts | 104° |
| 2026-05-05 00:50 | 25.34128 | 56.09187 | 25039 ft | 386 kts | 104° |
| 2026-05-05 00:50 | 25.33508 | 56.12087 | 25510 ft | 391 kts | 104° |
| 2026-05-05 00:50 | 25.33091 | 56.14036 | 25823 ft | 395 kts | 104° |
| 2026-05-05 00:50 | 25.32402 | 56.16986 | 26291 ft | 399 kts | 109° |
| 2026-05-05 00:51 | 25.31166 | 56.20842 | 26914 ft | 405 kts | 113° |
| 2026-05-05 00:51 | 25.30147 | 56.23761 | 27394 ft | 409 kts | 113° |
| 2026-05-05 00:51 | 25.29128 | 56.26712 | 27858 ft | 414 kts | 112° |
| 2026-05-05 00:51 | 25.28124 | 56.29702 | 28321 ft | 417 kts | 112° |
| 2026-05-05 00:52 | 25.27450 | 56.31747 | 28602 ft | 421 kts | 112° |
| 2026-05-05 00:52 | 25.26459 | 56.34773 | 28902 ft | 428 kts | 112° |
| 2026-05-05 00:52 | 25.25429 | 56.37920 | 29342 ft | 432 kts | 112° |
| 2026-05-05 00:52 | 25.24066 | 56.42064 | 29960 ft | 435 kts | 112° |
| 2026-05-05 00:53 | 25.23378 | 56.44147 | 30201 ft | 437 kts | 112° |
| 2026-05-05 00:53 | 25.22333 | 56.47309 | 30545 ft | 441 kts | 112° |
| 2026-05-05 00:53 | 25.21279 | 56.50500 | 30901 ft | 444 kts | 112° |
| 2026-05-05 00:53 | 25.20218 | 56.53711 | 31243 ft | 447 kts | 112° |
| 2026-05-05 00:54 | 25.19147 | 56.56948 | 31574 ft | 450 kts | 112° |
| 2026-05-05 00:54 | 25.18048 | 56.60190 | 31902 ft | 453 kts | 114° |
| 2026-05-05 00:54 | 25.16859 | 56.63424 | 32225 ft | 455 kts | 115° |
| 2026-05-05 00:54 | 25.15624 | 56.66647 | 32529 ft | 458 kts | 115° |
| 2026-05-05 00:55 | 25.14368 | 56.69894 | 32838 ft | 461 kts | 115° |
| 2026-05-05 00:55 | 25.13106 | 56.73161 | 33135 ft | 464 kts | 115° |
| 2026-05-05 00:55 | 25.11844 | 56.76449 | 33428 ft | 467 kts | 115° |
| 2026-05-05 00:55 | 25.10580 | 56.79766 | 33701 ft | 470 kts | 115° |
| 2026-05-05 00:56 | 25.09319 | 56.83087 | 34023 ft | 470 kts | 115° |
| 2026-05-05 00:56 | 25.08057 | 56.86419 | 34277 ft | 472 kts | 115° |
| 2026-05-05 00:56 | 25.06787 | 56.89771 | 34472 ft | 476 kts | 115° |
| 2026-05-05 00:56 | 25.05505 | 56.93152 | 34629 ft | 480 kts | 115° |
| 2026-05-05 00:57 | 25.04208 | 56.96569 | 34693 ft | 486 kts | 115° |
| 2026-05-05 00:57 | 25.01627 | 57.03361 | 34732 ft | 486 kts | 115° |
| 2026-05-05 00:58 | 24.99035 | 57.10176 | 34741 ft | 480 kts | 115° |
| 2026-05-05 00:58 | 24.96461 | 57.16924 | 34768 ft | 483 kts | 115° |
| 2026-05-05 00:59 | 24.93850 | 57.23757 | 34758 ft | 484 kts | 115° |
| 2026-05-05 00:59 | 24.91246 | 57.30566 | 34732 ft | 481 kts | 115° |
| 2026-05-05 01:00 | 24.88651 | 57.37338 | 34740 ft | 479 kts | 115° |
| 2026-05-05 01:00 | 24.86060 | 57.44088 | 34754 ft | 479 kts | 115° |
| 2026-05-05 01:01 | 24.83455 | 57.50861 | 34759 ft | 481 kts | 115° |
| 2026-05-05 01:01 | 24.80845 | 57.57640 | 34757 ft | 481 kts | 115° |
| 2026-05-05 01:02 | 24.78229 | 57.64424 | 34740 ft | 482 kts | 115° |
| 2026-05-05 01:02 | 24.75611 | 57.71207 | 34746 ft | 481 kts | 115° |
| 2026-05-05 01:03 | 24.73012 | 57.77972 | 34744 ft | 480 kts | 113° |
| 2026-05-05 01:03 | 24.70794 | 57.84883 | 34755 ft | 479 kts | 110° |
| 2026-05-05 01:04 | 24.68666 | 57.91808 | 34753 ft | 478 kts | 110° |
| 2026-05-05 01:04 | 24.65464 | 58.02115 | 34758 ft | 481 kts | 110° |
| 2026-05-05 01:05 | 24.63296 | 58.09023 | 34761 ft | 481 kts | 110° |
| 2026-05-05 01:05 | 24.61108 | 58.15972 | 34751 ft | 481 kts | 110° |
| 2026-05-05 01:06 | 24.58917 | 58.22925 | 34756 ft | 481 kts | 110° |
| 2026-05-05 01:06 | 24.56726 | 58.29868 | 34757 ft | 481 kts | 110° |
| 2026-05-05 01:07 | 24.54533 | 58.36803 | 34762 ft | 481 kts | 110° |
| 2026-05-05 01:07 | 24.52337 | 58.43735 | 34758 ft | 480 kts | 110° |
| 2026-05-05 01:08 | 24.50143 | 58.50651 | 34759 ft | 480 kts | 110° |
| 2026-05-05 01:08 | 24.47944 | 58.57568 | 34765 ft | 480 kts | 110° |
| 2026-05-05 01:09 | 24.45746 | 58.64471 | 34771 ft | 484 kts | 110° |
| 2026-05-05 01:09 | 24.43484 | 58.71563 | 34777 ft | 500 kts | 110° |
| 2026-05-05 01:10 | 24.40927 | 58.78778 | 34773 ft | 513 kts | 117° |
| 2026-05-05 01:10 | 24.37776 | 58.85820 | 34773 ft | 523 kts | 118° |
| 2026-05-05 01:11 | 24.34509 | 58.93015 | 34770 ft | 531 kts | 118° |
| 2026-05-05 01:11 | 24.31280 | 59.00218 | 34771 ft | 537 kts | 117° |
| 2026-05-05 01:12 | 24.27992 | 59.07601 | 34765 ft | 540 kts | 117° |
| 2026-05-05 01:12 | 24.24692 | 59.15007 | 34764 ft | 542 kts | 117° |
| 2026-05-05 01:13 | 24.21374 | 59.22428 | 34762 ft | 543 kts | 117° |
| 2026-05-05 01:13 | 24.18047 | 59.29856 | 34763 ft | 544 kts | 117° |
| 2026-05-05 01:14 | 24.14708 | 59.37297 | 34764 ft | 545 kts | 117° |
| 2026-05-05 01:14 | 24.11366 | 59.44738 | 34755 ft | 545 kts | 117° |
| 2026-05-05 01:15 | 24.08021 | 59.52170 | 34764 ft | 543 kts | 117° |
| 2026-05-05 01:15 | 24.04677 | 59.59570 | 34763 ft | 542 kts | 117° |
| 2026-05-05 01:16 | 24.01332 | 59.66953 | 34769 ft | 541 kts | 117° |
| 2026-05-05 01:16 | 23.98002 | 59.74301 | 34767 ft | 541 kts | 117° |
| 2026-05-05 01:17 | 23.94660 | 59.81663 | 34764 ft | 540 kts | 117° |
| 2026-05-05 01:17 | 23.91316 | 59.89021 | 34772 ft | 540 kts | 117° |
| 2026-05-05 01:18 | 23.87969 | 59.96372 | 34766 ft | 541 kts | 117° |
| 2026-05-05 01:18 | 23.84659 | 60.03631 | 34765 ft | 541 kts | 117° |
| 2026-05-05 01:19 | 23.81320 | 60.10942 | 34773 ft | 541 kts | 118° |
| 2026-05-05 01:19 | 23.77955 | 60.18298 | 34776 ft | 542 kts | 117° |
| 2026-05-05 01:20 | 23.74582 | 60.25661 | 34772 ft | 543 kts | 117° |
| 2026-05-05 01:20 | 23.71202 | 60.33027 | 34773 ft | 543 kts | 117° |
| 2026-05-05 01:21 | 23.67820 | 60.40387 | 34775 ft | 543 kts | 117° |
| 2026-05-05 01:21 | 23.64436 | 60.47739 | 34777 ft | 542 kts | 117° |
| 2026-05-05 01:22 | 23.61046 | 60.55093 | 34776 ft | 542 kts | 118° |
| 2026-05-05 01:22 | 23.57656 | 60.62437 | 34774 ft | 542 kts | 118° |
| 2026-05-05 01:23 | 23.54262 | 60.69778 | 34778 ft | 542 kts | 118° |
| 2026-05-05 01:23 | 23.50867 | 60.77109 | 34786 ft | 542 kts | 118° |
| 2026-05-05 01:24 | 23.47469 | 60.84437 | 34781 ft | 542 kts | 118° |
| 2026-05-05 01:24 | 23.44069 | 60.91758 | 34786 ft | 542 kts | 118° |
| 2026-05-05 01:25 | 23.40667 | 60.99072 | 34786 ft | 541 kts | 118° |
| 2026-05-05 01:25 | 23.37304 | 61.06292 | 34790 ft | 542 kts | 118° |
| 2026-05-05 01:26 | 23.33946 | 61.13632 | 34785 ft | 542 kts | 114° |
| 2026-05-05 01:26 | 23.31632 | 61.21428 | 34795 ft | 542 kts | 103° |
| 2026-05-05 01:27 | 23.30561 | 61.29530 | 34795 ft | 541 kts | 95° |
| 2026-05-05 01:27 | 23.29910 | 61.37699 | 34793 ft | 542 kts | 95° |
| 2026-05-05 01:28 | 23.29247 | 61.45809 | 34798 ft | 542 kts | 95° |
| 2026-05-05 01:28 | 23.28528 | 61.53980 | 34797 ft | 543 kts | 95° |
| 2026-05-05 01:29 | 23.27786 | 61.62145 | 34797 ft | 543 kts | 95° |
| 2026-05-05 01:29 | 23.27037 | 61.70319 | 34800 ft | 543 kts | 95° |
| 2026-05-05 01:30 | 23.26288 | 61.78497 | 34802 ft | 543 kts | 95° |
| 2026-05-05 01:30 | 23.25536 | 61.86674 | 34802 ft | 543 kts | 95° |
| 2026-05-05 01:31 | 23.24787 | 61.94779 | 34802 ft | 543 kts | 95° |
| 2026-05-05 01:31 | 23.24038 | 62.02837 | 34802 ft | 543 kts | 96° |
| 2026-05-05 01:32 | 23.23275 | 62.10994 | 34805 ft | 542 kts | 96° |
| 2026-05-05 01:32 | 23.22508 | 62.19143 | 34809 ft | 542 kts | 96° |
| 2026-05-05 01:33 | 23.21738 | 62.27284 | 34804 ft | 541 kts | 96° |
| 2026-05-05 01:33 | 23.20965 | 62.35418 | 34805 ft | 541 kts | 96° |
| 2026-05-05 01:34 | 23.20187 | 62.43550 | 34811 ft | 541 kts | 96° |
| 2026-05-05 01:34 | 23.19405 | 62.51682 | 34810 ft | 541 kts | 96° |
| 2026-05-05 01:35 | 23.18619 | 62.59813 | 34815 ft | 541 kts | 96° |
| 2026-05-05 01:35 | 23.17827 | 62.67956 | 34816 ft | 542 kts | 96° |
| 2026-05-05 01:36 | 23.17032 | 62.76098 | 34813 ft | 542 kts | 96° |
| 2026-05-05 01:36 | 23.16232 | 62.84242 | 34810 ft | 542 kts | 96° |
| 2026-05-05 01:37 | 23.15427 | 62.92391 | 34817 ft | 543 kts | 96° |
| 2026-05-05 01:37 | 23.14628 | 63.00433 | 34811 ft | 542 kts | 96° |
| 2026-05-05 01:38 | 23.13815 | 63.08580 | 34817 ft | 542 kts | 96° |
| 2026-05-05 01:38 | 23.12998 | 63.16717 | 34821 ft | 542 kts | 96° |
| 2026-05-05 01:39 | 23.12177 | 63.24853 | 34817 ft | 542 kts | 96° |
| 2026-05-05 01:39 | 23.11352 | 63.32989 | 34816 ft | 542 kts | 96° |
| 2026-05-05 01:40 | 23.10664 | 63.39742 | 34817 ft | 542 kts | 96° |
| 2026-05-05 01:40 | 23.09832 | 63.47877 | 34816 ft | 542 kts | 96° |
| 2026-05-05 01:41 | 23.08994 | 63.56015 | 34818 ft | 542 kts | 96° |
| 2026-05-05 01:41 | 23.08153 | 63.64150 | 34824 ft | 542 kts | 96° |
| 2026-05-05 01:42 | 23.07309 | 63.72280 | 34816 ft | 542 kts | 96° |
| 2026-05-05 01:42 | 23.06459 | 63.80417 | 34818 ft | 542 kts | 96° |
| 2026-05-05 01:43 | 23.05014 | 63.88443 | 34827 ft | 543 kts | 106° |
| 2026-05-05 01:43 | 23.02389 | 63.96112 | 34820 ft | 542 kts | 113° |
| 2026-05-05 01:44 | 22.99505 | 64.03551 | 34815 ft | 543 kts | 113° |
| 2026-05-05 01:44 | 22.96596 | 64.11116 | 34819 ft | 544 kts | 113° |
| 2026-05-05 01:45 | 22.93718 | 64.18705 | 34820 ft | 544 kts | 112° |
| 2026-05-05 01:45 | 22.90845 | 64.26310 | 34815 ft | 545 kts | 112° |
| 2026-05-05 01:46 | 22.87966 | 64.33916 | 34818 ft | 545 kts | 113° |
| 2026-05-05 01:46 | 22.85081 | 64.41515 | 34822 ft | 546 kts | 113° |
| 2026-05-05 01:47 | 22.82189 | 64.49118 | 34815 ft | 545 kts | 113° |
| 2026-05-05 01:47 | 22.79299 | 64.56701 | 34816 ft | 544 kts | 113° |
| 2026-05-05 01:48 | 22.76411 | 64.64268 | 34813 ft | 543 kts | 113° |
| 2026-05-05 01:48 | 22.73525 | 64.71815 | 34819 ft | 542 kts | 113° |
| 2026-05-05 01:49 | 22.70655 | 64.79309 | 34821 ft | 542 kts | 113° |
| 2026-05-05 01:49 | 22.67766 | 64.86840 | 34821 ft | 542 kts | 113° |
| 2026-05-05 01:50 | 22.64871 | 64.94377 | 34823 ft | 542 kts | 113° |
| 2026-05-05 01:50 | 22.62018 | 65.01791 | 34819 ft | 542 kts | 113° |
| 2026-05-05 01:51 | 22.59113 | 65.09327 | 34821 ft | 542 kts | 113° |
| 2026-05-05 01:51 | 22.56216 | 65.16830 | 34823 ft | 542 kts | 113° |
| 2026-05-05 01:52 | 22.53306 | 65.24355 | 34821 ft | 542 kts | 113° |
| 2026-05-05 01:52 | 22.50395 | 65.31870 | 34821 ft | 542 kts | 113° |
| 2026-05-05 01:53 | 22.47476 | 65.39395 | 34822 ft | 542 kts | 113° |
| 2026-05-05 01:53 | 22.44553 | 65.46917 | 34822 ft | 543 kts | 113° |
| 2026-05-05 01:54 | 22.41628 | 65.54432 | 34818 ft | 543 kts | 113° |
| 2026-05-05 01:54 | 22.38699 | 65.61945 | 34825 ft | 542 kts | 113° |
| 2026-05-05 01:55 | 22.35769 | 65.69449 | 34821 ft | 542 kts | 113° |
| 2026-05-05 01:55 | 22.32838 | 65.76943 | 34821 ft | 542 kts | 113° |
| 2026-05-05 01:56 | 22.29905 | 65.84432 | 34818 ft | 541 kts | 113° |
| 2026-05-05 01:56 | 22.26968 | 65.91919 | 34820 ft | 541 kts | 113° |
| 2026-05-05 01:57 | 22.24026 | 65.99404 | 34819 ft | 542 kts | 113° |
| 2026-05-05 01:57 | 22.21116 | 66.06798 | 34821 ft | 542 kts | 113° |
| 2026-05-05 01:58 | 22.18167 | 66.14280 | 34820 ft | 542 kts | 113° |
| 2026-05-05 01:58 | 22.15217 | 66.21751 | 34826 ft | 542 kts | 113° |
| 2026-05-05 01:59 | 22.12265 | 66.29218 | 34821 ft | 542 kts | 113° |
| 2026-05-05 01:59 | 22.09306 | 66.36691 | 34823 ft | 542 kts | 113° |
| 2026-05-05 02:00 | 22.06342 | 66.44166 | 34824 ft | 542 kts | 113° |
| 2026-05-05 02:00 | 22.03374 | 66.51636 | 34828 ft | 542 kts | 113° |
| 2026-05-05 02:01 | 22.00398 | 66.59106 | 34831 ft | 543 kts | 114° |
| 2026-05-05 02:01 | 21.97423 | 66.66563 | 34823 ft | 543 kts | 114° |
| 2026-05-05 02:02 | 21.94443 | 66.74026 | 34828 ft | 543 kts | 114° |
| 2026-05-05 02:02 | 21.91459 | 66.81490 | 34827 ft | 543 kts | 114° |
| 2026-05-05 02:03 | 21.88472 | 66.88949 | 34830 ft | 542 kts | 114° |
| 2026-05-05 02:03 | 21.85479 | 66.96411 | 34830 ft | 543 kts | 114° |
| 2026-05-05 02:04 | 21.82517 | 67.03784 | 34830 ft | 543 kts | 114° |
| 2026-05-05 02:04 | 21.79519 | 67.11236 | 34834 ft | 543 kts | 114° |
| 2026-05-05 02:05 | 21.76514 | 67.18692 | 34823 ft | 543 kts | 114° |
| 2026-05-05 02:05 | 21.73509 | 67.26139 | 34832 ft | 543 kts | 114° |
| 2026-05-05 02:06 | 21.70502 | 67.33576 | 34838 ft | 542 kts | 114° |
| 2026-05-05 02:06 | 21.67490 | 67.41018 | 34837 ft | 542 kts | 114° |
| 2026-05-05 02:07 | 21.64480 | 67.48442 | 34842 ft | 542 kts | 114° |
| 2026-05-05 02:07 | 21.61462 | 67.55875 | 34847 ft | 542 kts | 114° |
| 2026-05-05 02:08 | 21.58443 | 67.63298 | 34843 ft | 543 kts | 114° |
| 2026-05-05 02:08 | 21.55417 | 67.70730 | 34847 ft | 543 kts | 114° |
| 2026-05-05 02:09 | 21.52388 | 67.78156 | 34838 ft | 543 kts | 114° |
| 2026-05-05 02:09 | 21.49357 | 67.85575 | 34845 ft | 542 kts | 114° |
| 2026-05-05 02:10 | 21.46347 | 67.92934 | 34848 ft | 542 kts | 114° |
| 2026-05-05 02:10 | 21.43348 | 68.00253 | 34849 ft | 542 kts | 114° |
| 2026-05-05 02:11 | 21.40316 | 68.07642 | 34846 ft | 541 kts | 114° |
| 2026-05-05 02:11 | 21.37279 | 68.15034 | 34847 ft | 541 kts | 114° |
| 2026-05-05 02:12 | 21.32715 | 68.26119 | 34851 ft | 542 kts | 114° |
| 2026-05-05 02:13 | 21.29668 | 68.33507 | 34848 ft | 542 kts | 114° |
| 2026-05-05 02:13 | 21.26618 | 68.40892 | 34852 ft | 541 kts | 114° |
| 2026-05-05 02:14 | 21.23566 | 68.48270 | 34855 ft | 542 kts | 114° |
| 2026-05-05 02:14 | 21.20509 | 68.55651 | 34855 ft | 542 kts | 114° |
| 2026-05-05 02:15 | 21.17449 | 68.63026 | 34859 ft | 542 kts | 114° |
| 2026-05-05 02:15 | 21.14385 | 68.70402 | 34861 ft | 542 kts | 114° |
| 2026-05-05 02:16 | 21.11315 | 68.77779 | 34860 ft | 542 kts | 114° |
| 2026-05-05 02:16 | 21.08243 | 68.85154 | 34859 ft | 542 kts | 114° |
| 2026-05-05 02:17 | 21.05165 | 68.92531 | 34853 ft | 542 kts | 114° |
| 2026-05-05 02:17 | 21.02088 | 68.99896 | 34852 ft | 542 kts | 114° |
| 2026-05-05 02:18 | 20.99052 | 69.07154 | 34870 ft | 542 kts | 114° |
| 2026-05-05 02:18 | 20.96230 | 69.14627 | 34858 ft | 542 kts | 108° |
| 2026-05-05 02:19 | 20.93938 | 69.22309 | 34861 ft | 542 kts | 107° |
| 2026-05-05 02:19 | 20.91680 | 69.30008 | 34859 ft | 542 kts | 107° |
| 2026-05-05 02:20 | 20.89385 | 69.37691 | 34865 ft | 543 kts | 108° |
| 2026-05-05 02:20 | 20.87058 | 69.45376 | 34865 ft | 543 kts | 108° |
| 2026-05-05 02:21 | 20.84724 | 69.53055 | 34866 ft | 543 kts | 108° |
| 2026-05-05 02:21 | 20.82387 | 69.60741 | 34862 ft | 544 kts | 108° |
| 2026-05-05 02:22 | 20.80064 | 69.68373 | 34864 ft | 544 kts | 108° |
| 2026-05-05 02:22 | 20.77721 | 69.76059 | 34862 ft | 544 kts | 108° |
| 2026-05-05 02:23 | 20.75376 | 69.83739 | 34865 ft | 544 kts | 108° |
| 2026-05-05 02:23 | 20.73026 | 69.91422 | 34865 ft | 544 kts | 108° |
| 2026-05-05 02:24 | 20.70671 | 69.99107 | 34869 ft | 544 kts | 108° |
| 2026-05-05 02:24 | 20.68340 | 70.06699 | 34870 ft | 544 kts | 108° |
| 2026-05-05 02:25 | 20.65979 | 70.14374 | 34869 ft | 544 kts | 108° |
| 2026-05-05 02:25 | 20.63614 | 70.22050 | 34873 ft | 544 kts | 108° |
| 2026-05-05 02:26 | 20.61245 | 70.29725 | 34864 ft | 544 kts | 108° |
| 2026-05-05 02:26 | 20.59278 | 70.36090 | 34870 ft | 544 kts | 108° |
| 2026-05-05 02:27 | 20.56906 | 70.43750 | 34869 ft | 544 kts | 108° |
| 2026-05-05 02:27 | 20.54531 | 70.51410 | 34873 ft | 543 kts | 108° |
| 2026-05-05 02:28 | 20.52153 | 70.59062 | 34872 ft | 544 kts | 108° |
| 2026-05-05 02:28 | 20.49770 | 70.66719 | 34873 ft | 544 kts | 108° |
| 2026-05-05 02:29 | 20.47382 | 70.74378 | 34871 ft | 544 kts | 108° |
| 2026-05-05 02:29 | 20.44992 | 70.82033 | 34869 ft | 544 kts | 108° |
| 2026-05-05 02:30 | 20.42597 | 70.89690 | 34873 ft | 545 kts | 108° |
| 2026-05-05 02:30 | 20.40196 | 70.97351 | 34873 ft | 545 kts | 108° |
| 2026-05-05 02:31 | 20.37821 | 71.04917 | 34882 ft | 545 kts | 108° |
| 2026-05-05 02:31 | 20.35414 | 71.12575 | 34869 ft | 545 kts | 108° |
| 2026-05-05 02:32 | 20.33004 | 71.20226 | 34884 ft | 545 kts | 108° |
| 2026-05-05 02:32 | 20.30592 | 71.27873 | 34864 ft | 544 kts | 108° |
| 2026-05-05 02:33 | 20.28178 | 71.35511 | 34873 ft | 544 kts | 108° |
| 2026-05-05 02:33 | 20.25761 | 71.43147 | 34871 ft | 544 kts | 108° |
| 2026-05-05 02:34 | 20.23342 | 71.50780 | 34871 ft | 544 kts | 108° |
| 2026-05-05 02:34 | 20.20927 | 71.58409 | 34877 ft | 544 kts | 108° |
| 2026-05-05 02:35 | 20.18771 | 71.66126 | 34877 ft | 544 kts | 105° |
| 2026-05-05 02:35 | 20.16754 | 71.73892 | 34876 ft | 545 kts | 105° |
| 2026-05-05 02:36 | 20.14704 | 71.81649 | 34879 ft | 544 kts | 105° |
| 2026-05-05 02:36 | 20.12627 | 71.89330 | 34881 ft | 544 kts | 105° |
| 2026-05-05 02:37 | 20.10518 | 71.97054 | 34868 ft | 543 kts | 106° |
| 2026-05-05 02:37 | 20.08438 | 72.04671 | 34867 ft | 543 kts | 106° |
| 2026-05-05 02:38 | 20.06330 | 72.12384 | 34870 ft | 543 kts | 106° |
| 2026-05-05 02:38 | 20.04221 | 72.20094 | 34875 ft | 543 kts | 106° |
| 2026-05-05 02:39 | 20.02110 | 72.27797 | 34869 ft | 543 kts | 106° |
| 2026-05-05 02:39 | 19.99996 | 72.35497 | 34871 ft | 543 kts | 106° |
| 2026-05-05 02:40 | 19.97876 | 72.43202 | 34874 ft | 543 kts | 106° |
| 2026-05-05 02:40 | 19.95752 | 72.50909 | 34865 ft | 543 kts | 106° |
| 2026-05-05 02:41 | 19.93630 | 72.58594 | 34863 ft | 543 kts | 106° |
| 2026-05-05 02:41 | 19.91501 | 72.66289 | 34868 ft | 542 kts | 106° |
| 2026-05-05 02:42 | 19.89371 | 72.73976 | 34858 ft | 542 kts | 106° |
| 2026-05-05 02:42 | 19.87241 | 72.81646 | 34883 ft | 541 kts | 106° |
| 2026-05-05 02:43 | 19.85109 | 72.89313 | 34880 ft | 541 kts | 106° |
| 2026-05-05 02:43 | 19.82974 | 72.96973 | 34890 ft | 541 kts | 106° |
| 2026-05-05 02:44 | 19.80863 | 73.04537 | 34893 ft | 541 kts | 106° |
| 2026-05-05 02:44 | 19.78721 | 73.12198 | 34904 ft | 541 kts | 106° |
| 2026-05-05 02:45 | 19.76574 | 73.19861 | 34902 ft | 542 kts | 106° |
| 2026-05-05 02:45 | 19.74436 | 73.27480 | 34916 ft | 542 kts | 106° |
| 2026-05-05 02:46 | 19.72281 | 73.35144 | 34904 ft | 543 kts | 107° |
| 2026-05-05 02:46 | 19.70119 | 73.42822 | 34935 ft | 543 kts | 107° |
| 2026-05-05 02:47 | 19.67954 | 73.50498 | 34916 ft | 542 kts | 107° |
| 2026-05-05 02:47 | 19.65792 | 73.58149 | 34931 ft | 540 kts | 107° |
| 2026-05-05 02:48 | 19.63850 | 73.65832 | 34932 ft | 538 kts | 100° |
| 2026-05-05 02:48 | 19.63059 | 73.73701 | 34945 ft | 536 kts | 91° |
| 2026-05-05 02:49 | 19.62890 | 73.81612 | 34948 ft | 537 kts | 90° |
| 2026-05-05 02:49 | 19.62708 | 73.89543 | 34944 ft | 538 kts | 91° |
| 2026-05-05 02:50 | 19.62476 | 73.97487 | 34940 ft | 539 kts | 91° |
| 2026-05-05 02:50 | 19.62227 | 74.05320 | 34939 ft | 540 kts | 91° |
| 2026-05-05 02:51 | 19.61971 | 74.13278 | 34936 ft | 540 kts | 91° |
| 2026-05-05 02:51 | 19.61716 | 74.21236 | 34938 ft | 539 kts | 91° |
| 2026-05-05 02:52 | 19.61458 | 74.29187 | 34936 ft | 539 kts | 91° |
| 2026-05-05 02:52 | 19.61197 | 74.37133 | 34940 ft | 539 kts | 91° |
| 2026-05-05 02:53 | 19.60932 | 74.45081 | 34931 ft | 539 kts | 91° |
| 2026-05-05 02:53 | 19.60664 | 74.53031 | 34939 ft | 539 kts | 91° |
| 2026-05-05 02:54 | 19.60102 | 74.60967 | 34939 ft | 540 kts | 95° |
| 2026-05-05 02:54 | 19.59306 | 74.68835 | 34941 ft | 540 kts | 96° |
| 2026-05-05 02:55 | 19.58498 | 74.76756 | 34937 ft | 541 kts | 95° |
| 2026-05-05 02:55 | 19.57717 | 74.84685 | 34940 ft | 541 kts | 95° |
| 2026-05-05 02:56 | 19.56947 | 74.92620 | 34937 ft | 541 kts | 95° |
| 2026-05-05 02:56 | 19.56183 | 75.00448 | 34936 ft | 541 kts | 95° |
| 2026-05-05 02:57 | 19.55403 | 75.08381 | 34939 ft | 541 kts | 95° |
| 2026-05-05 02:57 | 19.54618 | 75.16313 | 34934 ft | 541 kts | 95° |
| 2026-05-05 02:58 | 19.53829 | 75.24254 | 34938 ft | 541 kts | 95° |
| 2026-05-05 02:58 | 19.53037 | 75.32194 | 34939 ft | 542 kts | 95° |
| 2026-05-05 02:59 | 19.52244 | 75.40105 | 34931 ft | 538 kts | 96° |
| 2026-05-05 02:59 | 19.51451 | 75.47980 | 34931 ft | 536 kts | 96° |
| 2026-05-05 03:00 | 19.50659 | 75.55822 | 34936 ft | 535 kts | 96° |
| 2026-05-05 03:00 | 19.49862 | 75.63673 | 34941 ft | 536 kts | 96° |
| 2026-05-05 03:01 | 19.49072 | 75.71549 | 34943 ft | 538 kts | 96° |
| 2026-05-05 03:01 | 19.48287 | 75.79440 | 34942 ft | 540 kts | 96° |
| 2026-05-05 03:02 | 19.47495 | 75.87363 | 34937 ft | 541 kts | 96° |
| 2026-05-05 03:02 | 19.46696 | 75.95288 | 34938 ft | 542 kts | 96° |
| 2026-05-05 03:03 | 19.45908 | 76.03069 | 34939 ft | 542 kts | 96° |
| 2026-05-05 03:03 | 19.45101 | 76.11007 | 34936 ft | 542 kts | 96° |
| 2026-05-05 03:04 | 19.44291 | 76.18937 | 34931 ft | 541 kts | 96° |
| 2026-05-05 03:04 | 19.43478 | 76.26865 | 34935 ft | 541 kts | 96° |
| 2026-05-05 03:05 | 19.42662 | 76.34792 | 34933 ft | 541 kts | 96° |
| 2026-05-05 03:05 | 19.41843 | 76.42709 | 34933 ft | 541 kts | 96° |
| 2026-05-05 03:06 | 19.41020 | 76.50630 | 34934 ft | 541 kts | 96° |
| 2026-05-05 03:06 | 19.40194 | 76.58547 | 34934 ft | 541 kts | 96° |
| 2026-05-05 03:07 | 19.39362 | 76.66485 | 34933 ft | 543 kts | 96° |
| 2026-05-05 03:07 | 19.38526 | 76.74430 | 34928 ft | 542 kts | 96° |
| 2026-05-05 03:08 | 19.37689 | 76.82359 | 34923 ft | 541 kts | 96° |
| 2026-05-05 03:08 | 19.36896 | 76.90281 | 34924 ft | 541 kts | 96° |
| 2026-05-05 03:09 | 19.36156 | 76.98215 | 34923 ft | 542 kts | 95° |
| 2026-05-05 03:09 | 19.35420 | 77.06055 | 34925 ft | 543 kts | 96° |
| 2026-05-05 03:10 | 19.34659 | 77.14019 | 34914 ft | 544 kts | 96° |
| 2026-05-05 03:10 | 19.33888 | 77.21982 | 34914 ft | 544 kts | 96° |
| 2026-05-05 03:11 | 19.33114 | 77.29947 | 34913 ft | 544 kts | 96° |
| 2026-05-05 03:11 | 19.32339 | 77.37903 | 34913 ft | 544 kts | 96° |
| 2026-05-05 03:12 | 19.31560 | 77.45863 | 34913 ft | 543 kts | 96° |
| 2026-05-05 03:12 | 19.30778 | 77.53815 | 34914 ft | 543 kts | 96° |
| 2026-05-05 03:13 | 19.29992 | 77.61768 | 34916 ft | 543 kts | 96° |
| 2026-05-05 03:13 | 19.29204 | 77.69715 | 34908 ft | 543 kts | 96° |
| 2026-05-05 03:14 | 19.28417 | 77.77609 | 34909 ft | 543 kts | 96° |
| 2026-05-05 03:14 | 19.27623 | 77.85547 | 34906 ft | 543 kts | 96° |
| 2026-05-05 03:15 | 19.26825 | 77.93488 | 34905 ft | 543 kts | 96° |
| 2026-05-05 03:15 | 19.26034 | 78.01326 | 34908 ft | 543 kts | 97° |
| 2026-05-05 03:16 | 19.25359 | 78.07981 | 34909 ft | 543 kts | 97° |
| 2026-05-05 03:16 | 19.24069 | 78.15838 | 34899 ft | 542 kts | 107° |
| 2026-05-05 03:17 | 19.21869 | 78.23451 | 34905 ft | 541 kts | 109° |
| 2026-05-05 03:17 | 19.19611 | 78.31060 | 34905 ft | 542 kts | 108° |
| 2026-05-05 03:18 | 19.17396 | 78.38673 | 34908 ft | 542 kts | 108° |
| 2026-05-05 03:18 | 19.15202 | 78.46310 | 34902 ft | 542 kts | 108° |
| 2026-05-05 03:19 | 19.11918 | 78.57751 | 34903 ft | 542 kts | 108° |
| 2026-05-05 03:19 | 19.09721 | 78.65370 | 34906 ft | 541 kts | 108° |
| 2026-05-05 03:20 | 19.07527 | 78.72965 | 34902 ft | 540 kts | 108° |
| 2026-05-05 03:20 | 19.05348 | 78.80492 | 34902 ft | 538 kts | 108° |
| 2026-05-05 03:21 | 19.03158 | 78.88045 | 34908 ft | 538 kts | 108° |
| 2026-05-05 03:21 | 19.00965 | 78.95596 | 34910 ft | 537 kts | 108° |
| 2026-05-05 03:22 | 18.98803 | 79.03030 | 34908 ft | 537 kts | 108° |
| 2026-05-05 03:22 | 18.96605 | 79.10573 | 34912 ft | 537 kts | 109° |
| 2026-05-05 03:23 | 18.94405 | 79.18114 | 34912 ft | 537 kts | 109° |
| 2026-05-05 03:23 | 18.92199 | 79.25659 | 34914 ft | 537 kts | 109° |
| 2026-05-05 03:24 | 18.89992 | 79.33197 | 34918 ft | 538 kts | 109° |
| 2026-05-05 03:24 | 18.87779 | 79.40745 | 34914 ft | 538 kts | 109° |
| 2026-05-05 03:25 | 18.85567 | 79.48274 | 34918 ft | 537 kts | 109° |
| 2026-05-05 03:25 | 18.83354 | 79.55795 | 34911 ft | 536 kts | 109° |
| 2026-05-05 03:26 | 18.81141 | 79.63303 | 34916 ft | 535 kts | 109° |
| 2026-05-05 03:26 | 18.78934 | 79.70783 | 34912 ft | 533 kts | 109° |
| 2026-05-05 03:27 | 18.76727 | 79.78247 | 34919 ft | 532 kts | 109° |
| 2026-05-05 03:27 | 18.74519 | 79.85705 | 34921 ft | 533 kts | 109° |
| 2026-05-05 03:28 | 18.72305 | 79.93167 | 34920 ft | 533 kts | 109° |
| 2026-05-05 03:28 | 18.70117 | 80.00531 | 34924 ft | 534 kts | 109° |
| 2026-05-05 03:29 | 18.67892 | 80.08010 | 34921 ft | 535 kts | 109° |
| 2026-05-05 03:29 | 18.65664 | 80.15487 | 34925 ft | 535 kts | 109° |
| 2026-05-05 03:30 | 18.63444 | 80.22923 | 34922 ft | 536 kts | 109° |
| 2026-05-05 03:30 | 18.61203 | 80.30422 | 34930 ft | 537 kts | 109° |
| 2026-05-05 03:31 | 18.58955 | 80.37930 | 34932 ft | 537 kts | 109° |
| 2026-05-05 03:31 | 18.56704 | 80.45436 | 34929 ft | 537 kts | 109° |
| 2026-05-05 03:32 | 18.54450 | 80.52943 | 34927 ft | 537 kts | 109° |
| 2026-05-05 03:32 | 18.52184 | 80.60440 | 34932 ft | 536 kts | 110° |
| 2026-05-05 03:33 | 18.49812 | 80.67884 | 34925 ft | 536 kts | 110° |
| 2026-05-05 03:33 | 18.47404 | 80.75308 | 34926 ft | 535 kts | 110° |
| 2026-05-05 03:34 | 18.45009 | 80.82728 | 34925 ft | 535 kts | 110° |
| 2026-05-05 03:34 | 18.42624 | 80.90150 | 34927 ft | 535 kts | 110° |
| 2026-05-05 03:35 | 18.40238 | 80.97575 | 34928 ft | 535 kts | 110° |
| 2026-05-05 03:35 | 18.37882 | 81.04890 | 34925 ft | 535 kts | 110° |
| 2026-05-05 03:36 | 18.35491 | 81.12303 | 34929 ft | 534 kts | 110° |
| 2026-05-05 03:36 | 18.33100 | 81.19703 | 34929 ft | 534 kts | 111° |
| 2026-05-05 03:37 | 18.30704 | 81.27107 | 34929 ft | 535 kts | 111° |
| 2026-05-05 03:37 | 18.28305 | 81.34511 | 34929 ft | 534 kts | 111° |
| 2026-05-05 03:38 | 18.25903 | 81.41912 | 34928 ft | 534 kts | 111° |
| 2026-05-05 03:38 | 18.23501 | 81.49304 | 34918 ft | 534 kts | 111° |
| 2026-05-05 03:39 | 18.21099 | 81.56686 | 34920 ft | 533 kts | 111° |
| 2026-05-05 03:39 | 18.18693 | 81.64067 | 34917 ft | 533 kts | 111° |
| 2026-05-05 03:40 | 18.16289 | 81.71430 | 34916 ft | 533 kts | 111° |
| 2026-05-05 03:40 | 18.13882 | 81.78797 | 34921 ft | 533 kts | 111° |
| 2026-05-05 03:41 | 18.11471 | 81.86162 | 34930 ft | 533 kts | 111° |
| 2026-05-05 03:41 | 18.09057 | 81.93528 | 34930 ft | 533 kts | 111° |
| 2026-05-05 03:42 | 18.06676 | 82.00790 | 34942 ft | 533 kts | 111° |
| 2026-05-05 03:42 | 18.04319 | 82.08180 | 34935 ft | 533 kts | 110° |
| 2026-05-05 03:43 | 18.01998 | 82.15574 | 34958 ft | 533 kts | 110° |
| 2026-05-05 03:43 | 17.99688 | 82.22906 | 34964 ft | 532 kts | 110° |
| 2026-05-05 03:44 | 17.97348 | 82.30288 | 34953 ft | 533 kts | 110° |
| 2026-05-05 03:44 | 17.95002 | 82.37667 | 34957 ft | 533 kts | 110° |
| 2026-05-05 03:45 | 17.92651 | 82.45049 | 34961 ft | 533 kts | 110° |
| 2026-05-05 03:45 | 17.90299 | 82.52430 | 34964 ft | 533 kts | 110° |
| 2026-05-05 03:46 | 17.87947 | 82.59803 | 34947 ft | 533 kts | 110° |
| 2026-05-05 03:46 | 17.85593 | 82.67168 | 34956 ft | 533 kts | 110° |
| 2026-05-05 03:47 | 17.83233 | 82.74541 | 34945 ft | 533 kts | 110° |
| 2026-05-05 03:47 | 17.80880 | 82.81887 | 34940 ft | 533 kts | 111° |
| 2026-05-05 03:48 | 17.78514 | 82.89256 | 34929 ft | 532 kts | 111° |
| 2026-05-05 03:48 | 17.76149 | 82.96615 | 34921 ft | 532 kts | 111° |
| 2026-05-05 03:49 | 17.73814 | 83.03872 | 34913 ft | 532 kts | 111° |
| 2026-05-05 03:49 | 17.71442 | 83.11230 | 34913 ft | 532 kts | 111° |
| 2026-05-05 03:50 | 17.69069 | 83.18587 | 34915 ft | 532 kts | 111° |
| 2026-05-05 03:50 | 17.66718 | 83.25946 | 34911 ft | 533 kts | 109° |
| 2026-05-05 03:51 | 17.64778 | 83.33447 | 34913 ft | 533 kts | 107° |
| 2026-05-05 03:51 | 17.62931 | 83.40977 | 34900 ft | 533 kts | 107° |
| 2026-05-05 03:52 | 17.61063 | 83.48490 | 34904 ft | 532 kts | 107° |
| 2026-05-05 03:52 | 17.59171 | 83.55985 | 34898 ft | 532 kts | 107° |
| 2026-05-05 03:53 | 17.57271 | 83.63479 | 34898 ft | 532 kts | 107° |
| 2026-05-05 03:53 | 17.55372 | 83.70967 | 34898 ft | 532 kts | 107° |
| 2026-05-05 03:54 | 17.53470 | 83.78458 | 34895 ft | 532 kts | 107° |
| 2026-05-05 03:54 | 17.51567 | 83.85945 | 34896 ft | 532 kts | 107° |
| 2026-05-05 03:55 | 17.49662 | 83.93433 | 34894 ft | 532 kts | 107° |
| 2026-05-05 03:55 | 17.47839 | 84.00852 | 34898 ft | 533 kts | 106° |
| 2026-05-05 03:56 | 17.46017 | 84.08378 | 34897 ft | 533 kts | 106° |
| 2026-05-05 03:56 | 17.44186 | 84.15894 | 34897 ft | 533 kts | 106° |
| 2026-05-05 03:57 | 17.42342 | 84.23416 | 34899 ft | 533 kts | 106° |
| 2026-05-05 03:57 | 17.40502 | 84.30905 | 34897 ft | 533 kts | 107° |
| 2026-05-05 03:58 | 17.38652 | 84.38426 | 34899 ft | 533 kts | 107° |
| 2026-05-05 03:58 | 17.36801 | 84.45939 | 34899 ft | 533 kts | 107° |
| 2026-05-05 03:59 | 17.34962 | 84.53459 | 34899 ft | 534 kts | 106° |
| 2026-05-05 03:59 | 17.33198 | 84.61009 | 34899 ft | 534 kts | 106° |
| 2026-05-05 04:00 | 17.31457 | 84.68527 | 34891 ft | 533 kts | 106° |
| 2026-05-05 04:00 | 17.29997 | 84.74777 | 34900 ft | 533 kts | 106° |
| 2026-05-05 04:01 | 17.28229 | 84.82298 | 34900 ft | 532 kts | 107° |
| 2026-05-05 04:01 | 17.26467 | 84.89780 | 34987 ft | 519 kts | 107° |
| 2026-05-05 04:02 | 17.25612 | 84.93414 | 35377 ft | 510 kts | 107° |
| 2026-05-05 04:02 | 17.24775 | 84.96967 | 36198 ft | 497 kts | 107° |
| 2026-05-05 04:02 | 17.23974 | 85.00364 | 36762 ft | 492 kts | 107° |
| 2026-05-05 04:02 | 17.23146 | 85.03855 | 36914 ft | 497 kts | 107° |
| 2026-05-05 04:03 | 17.21458 | 85.10964 | 36906 ft | 510 kts | 107° |
| 2026-05-05 04:03 | 17.19730 | 85.18250 | 36910 ft | 522 kts | 107° |
| 2026-05-05 04:04 | 17.17971 | 85.25669 | 36907 ft | 529 kts | 106° |
| 2026-05-05 04:04 | 17.16196 | 85.33164 | 36908 ft | 532 kts | 106° |
| 2026-05-05 04:05 | 17.14470 | 85.40682 | 36903 ft | 532 kts | 106° |
| 2026-05-05 04:05 | 17.12764 | 85.48191 | 36897 ft | 529 kts | 106° |
| 2026-05-05 04:06 | 17.11057 | 85.55658 | 36897 ft | 526 kts | 106° |
| 2026-05-05 04:06 | 17.09357 | 85.63054 | 36900 ft | 524 kts | 106° |
| 2026-05-05 04:07 | 17.07654 | 85.70440 | 36900 ft | 522 kts | 106° |
| 2026-05-05 04:07 | 17.05953 | 85.77806 | 36902 ft | 521 kts | 106° |
| 2026-05-05 04:08 | 17.04249 | 85.85173 | 36905 ft | 521 kts | 106° |
| 2026-05-05 04:08 | 17.02542 | 85.92542 | 36908 ft | 522 kts | 106° |
| 2026-05-05 04:09 | 17.00829 | 85.99925 | 36901 ft | 523 kts | 106° |
| 2026-05-05 04:09 | 16.99138 | 86.07202 | 36907 ft | 523 kts | 106° |
| 2026-05-05 04:10 | 16.97421 | 86.14577 | 36903 ft | 523 kts | 106° |
| 2026-05-05 04:10 | 16.95702 | 86.21947 | 36904 ft | 522 kts | 106° |
| 2026-05-05 04:11 | 16.93981 | 86.29311 | 36905 ft | 522 kts | 106° |
| 2026-05-05 04:11 | 16.92260 | 86.36668 | 36908 ft | 521 kts | 106° |
| 2026-05-05 04:12 | 16.90549 | 86.43966 | 36909 ft | 521 kts | 106° |
| 2026-05-05 04:12 | 16.88814 | 86.51353 | 36907 ft | 520 kts | 106° |
| 2026-05-05 04:13 | 16.87099 | 86.58644 | 36910 ft | 520 kts | 106° |
| 2026-05-05 04:13 | 16.85371 | 86.65976 | 36910 ft | 520 kts | 106° |
| 2026-05-05 04:14 | 16.83640 | 86.73312 | 36917 ft | 520 kts | 106° |
| 2026-05-05 04:14 | 16.81906 | 86.80647 | 36912 ft | 520 kts | 106° |
| 2026-05-05 04:15 | 16.80158 | 86.88029 | 36913 ft | 521 kts | 106° |
| 2026-05-05 04:15 | 16.78430 | 86.95315 | 36911 ft | 521 kts | 106° |
| 2026-05-05 04:16 | 16.76697 | 87.02608 | 36916 ft | 521 kts | 106° |
| 2026-05-05 04:16 | 16.74952 | 87.09946 | 36912 ft | 521 kts | 106° |
| 2026-05-05 04:17 | 16.73203 | 87.17290 | 36919 ft | 522 kts | 106° |
| 2026-05-05 04:17 | 16.71476 | 87.24646 | 36921 ft | 522 kts | 106° |
| 2026-05-05 04:18 | 16.69769 | 87.31949 | 36917 ft | 522 kts | 106° |
| 2026-05-05 04:18 | 16.68043 | 87.39312 | 36909 ft | 522 kts | 105° |
| 2026-05-05 04:19 | 16.66313 | 87.46666 | 36917 ft | 522 kts | 105° |
| 2026-05-05 04:19 | 16.64582 | 87.54007 | 36917 ft | 521 kts | 105° |
| 2026-05-05 04:20 | 16.62850 | 87.61342 | 36923 ft | 521 kts | 105° |
| 2026-05-05 04:20 | 16.61118 | 87.68663 | 36922 ft | 520 kts | 105° |
| 2026-05-05 04:21 | 16.59383 | 87.75985 | 36919 ft | 520 kts | 105° |
| 2026-05-05 04:21 | 16.57646 | 87.83306 | 36921 ft | 521 kts | 105° |
| 2026-05-05 04:22 | 16.55903 | 87.90642 | 36922 ft | 522 kts | 105° |
| 2026-05-05 04:22 | 16.54154 | 87.97985 | 36923 ft | 522 kts | 105° |
| 2026-05-05 04:23 | 16.52424 | 88.05241 | 36926 ft | 523 kts | 105° |
| 2026-05-05 04:23 | 16.50665 | 88.12603 | 36922 ft | 524 kts | 105° |
| 2026-05-05 04:24 | 16.48900 | 88.19979 | 36929 ft | 525 kts | 105° |
| 2026-05-05 04:25 | 16.46243 | 88.31062 | 36924 ft | 527 kts | 105° |
| 2026-05-05 04:25 | 16.44464 | 88.38470 | 36929 ft | 527 kts | 105° |
| 2026-05-05 04:26 | 16.42682 | 88.45874 | 36928 ft | 527 kts | 105° |
| 2026-05-05 04:26 | 16.40897 | 88.53279 | 36925 ft | 527 kts | 105° |
| 2026-05-05 04:27 | 16.39111 | 88.60679 | 36928 ft | 527 kts | 105° |
| 2026-05-05 04:27 | 16.37323 | 88.68072 | 36932 ft | 526 kts | 105° |
| 2026-05-05 04:28 | 16.35533 | 88.75464 | 36927 ft | 526 kts | 105° |
| 2026-05-05 04:28 | 16.33744 | 88.82836 | 36945 ft | 525 kts | 105° |
| 2026-05-05 04:29 | 16.31956 | 88.90196 | 36921 ft | 523 kts | 105° |
| 2026-05-05 04:29 | 16.30174 | 88.97520 | 36921 ft | 521 kts | 105° |
| 2026-05-05 04:30 | 16.28430 | 89.04678 | 36928 ft | 520 kts | 105° |
| 2026-05-05 04:30 | 16.26658 | 89.11972 | 36924 ft | 519 kts | 105° |
| 2026-05-05 04:31 | 16.24927 | 89.19313 | 36940 ft | 519 kts | 104° |
| 2026-05-05 04:31 | 16.23228 | 89.26558 | 36940 ft | 519 kts | 104° |
| 2026-05-05 04:32 | 16.21507 | 89.33859 | 36923 ft | 520 kts | 104° |
| 2026-05-05 04:32 | 16.19777 | 89.41165 | 36922 ft | 520 kts | 104° |
| 2026-05-05 04:33 | 16.18043 | 89.48473 | 36940 ft | 521 kts | 104° |
| 2026-05-05 04:33 | 16.16303 | 89.55791 | 36941 ft | 521 kts | 104° |
| 2026-05-05 04:34 | 16.14559 | 89.63118 | 36926 ft | 522 kts | 104° |
| 2026-05-05 04:34 | 16.12814 | 89.70442 | 36923 ft | 522 kts | 104° |
| 2026-05-05 04:35 | 16.11064 | 89.77768 | 36940 ft | 522 kts | 104° |
| 2026-05-05 04:35 | 16.09313 | 89.85093 | 36931 ft | 522 kts | 104° |
| 2026-05-05 04:36 | 16.07563 | 89.92397 | 36926 ft | 522 kts | 104° |
| 2026-05-05 04:36 | 16.05808 | 89.99714 | 36929 ft | 521 kts | 104° |
| 2026-05-05 04:37 | 16.04076 | 90.06926 | 36926 ft | 521 kts | 104° |
| 2026-05-05 04:37 | 16.02319 | 90.14228 | 36932 ft | 520 kts | 104° |
| 2026-05-05 04:38 | 16.00580 | 90.21521 | 36928 ft | 520 kts | 104° |
| 2026-05-05 04:38 | 15.98902 | 90.28758 | 36927 ft | 519 kts | 104° |
| 2026-05-05 04:39 | 15.97216 | 90.36043 | 36921 ft | 518 kts | 104° |
| 2026-05-05 04:39 | 15.95513 | 90.43359 | 36927 ft | 517 kts | 104° |
| 2026-05-05 04:40 | 15.93827 | 90.50571 | 36926 ft | 517 kts | 104° |
| 2026-05-05 04:40 | 15.92130 | 90.57816 | 36931 ft | 516 kts | 104° |
| 2026-05-05 04:41 | 15.90431 | 90.65059 | 36940 ft | 516 kts | 104° |
| 2026-05-05 04:41 | 15.88730 | 90.72305 | 36932 ft | 516 kts | 104° |
| 2026-05-05 04:42 | 15.87026 | 90.79547 | 36921 ft | 516 kts | 104° |
| 2026-05-05 04:42 | 15.85319 | 90.86793 | 36932 ft | 517 kts | 104° |
| 2026-05-05 04:43 | 15.83608 | 90.94041 | 36925 ft | 517 kts | 104° |
| 2026-05-05 04:43 | 15.81918 | 91.01193 | 36933 ft | 516 kts | 104° |
| 2026-05-05 04:44 | 15.80204 | 91.08434 | 36927 ft | 516 kts | 104° |
| 2026-05-05 04:44 | 15.78488 | 91.15673 | 36924 ft | 516 kts | 104° |
| 2026-05-05 04:45 | 15.76792 | 91.22814 | 36927 ft | 516 kts | 104° |
| 2026-05-05 04:45 | 15.75070 | 91.30053 | 36926 ft | 516 kts | 104° |
| 2026-05-05 04:46 | 15.73346 | 91.37290 | 36930 ft | 516 kts | 104° |
| 2026-05-05 04:46 | 15.71621 | 91.44524 | 36925 ft | 517 kts | 104° |
| 2026-05-05 04:47 | 15.70183 | 91.50541 | 36932 ft | 517 kts | 104° |
| 2026-05-05 04:47 | 15.68160 | 91.58999 | 36925 ft | 517 kts | 104° |
| 2026-05-05 04:48 | 15.66718 | 91.65014 | 36922 ft | 516 kts | 104° |
| 2026-05-05 04:48 | 15.64983 | 91.72245 | 36918 ft | 516 kts | 104° |
| 2026-05-05 04:49 | 15.63251 | 91.79452 | 36934 ft | 516 kts | 104° |
| 2026-05-05 04:49 | 15.61513 | 91.86672 | 36919 ft | 515 kts | 104° |
| 2026-05-05 04:50 | 15.59778 | 91.93873 | 36917 ft | 515 kts | 104° |
| 2026-05-05 04:50 | 15.58063 | 92.00977 | 36928 ft | 514 kts | 104° |
| 2026-05-05 04:51 | 15.56310 | 92.08163 | 36931 ft | 514 kts | 104° |
| 2026-05-05 04:51 | 15.54548 | 92.15344 | 36921 ft | 514 kts | 104° |
| 2026-05-05 04:52 | 15.52786 | 92.22531 | 36914 ft | 514 kts | 104° |
| 2026-05-05 04:52 | 15.51025 | 92.29705 | 36927 ft | 514 kts | 104° |
| 2026-05-05 04:53 | 15.49262 | 92.36883 | 36918 ft | 514 kts | 104° |
| 2026-05-05 04:53 | 15.47497 | 92.44058 | 36922 ft | 513 kts | 104° |
| 2026-05-05 04:54 | 15.45731 | 92.51224 | 36925 ft | 513 kts | 104° |
| 2026-05-05 04:54 | 15.43976 | 92.58339 | 36928 ft | 513 kts | 104° |
| 2026-05-05 04:55 | 15.42221 | 92.65501 | 36915 ft | 513 kts | 104° |
| 2026-05-05 04:55 | 15.40590 | 92.72699 | 36917 ft | 513 kts | 103° |
| 2026-05-05 04:56 | 15.39004 | 92.79890 | 36918 ft | 512 kts | 103° |
| 2026-05-05 04:56 | 15.37395 | 92.87109 | 36930 ft | 517 kts | 103° |
| 2026-05-05 04:57 | 15.35754 | 92.94395 | 36931 ft | 521 kts | 103° |
| 2026-05-05 04:57 | 15.34117 | 93.01624 | 36918 ft | 523 kts | 103° |
| 2026-05-05 04:58 | 15.32453 | 93.08964 | 36922 ft | 523 kts | 103° |
| 2026-05-05 04:58 | 15.30792 | 93.16283 | 36914 ft | 521 kts | 103° |
| 2026-05-05 04:59 | 15.29139 | 93.23562 | 36915 ft | 518 kts | 103° |
| 2026-05-05 04:59 | 15.27490 | 93.30808 | 36915 ft | 516 kts | 103° |
| 2026-05-05 05:00 | 15.25844 | 93.38029 | 36923 ft | 514 kts | 103° |
| 2026-05-05 05:00 | 15.24199 | 93.45235 | 36930 ft | 514 kts | 103° |
| 2026-05-05 05:01 | 15.22553 | 93.52434 | 36933 ft | 514 kts | 103° |
| 2026-05-05 05:01 | 15.20904 | 93.59636 | 36919 ft | 514 kts | 103° |
| 2026-05-05 05:02 | 15.19250 | 93.66847 | 36922 ft | 515 kts | 103° |
| 2026-05-05 05:02 | 15.17592 | 93.74063 | 36931 ft | 516 kts | 103° |
| 2026-05-05 05:03 | 15.15929 | 93.81294 | 36917 ft | 516 kts | 103° |
| 2026-05-05 05:03 | 15.14263 | 93.88524 | 36918 ft | 517 kts | 103° |
| 2026-05-05 05:04 | 15.12592 | 93.95763 | 36924 ft | 517 kts | 103° |
| 2026-05-05 05:04 | 15.10943 | 94.02902 | 36925 ft | 517 kts | 103° |
| 2026-05-05 05:05 | 15.09267 | 94.10141 | 36920 ft | 517 kts | 103° |
| 2026-05-05 05:05 | 15.07590 | 94.17375 | 36916 ft | 517 kts | 103° |
| 2026-05-05 05:06 | 15.05911 | 94.24608 | 36913 ft | 517 kts | 103° |
| 2026-05-05 05:06 | 15.04229 | 94.31838 | 36917 ft | 517 kts | 104° |
| 2026-05-05 05:07 | 15.02546 | 94.39065 | 36926 ft | 517 kts | 104° |
| 2026-05-05 05:07 | 15.00872 | 94.46244 | 36916 ft | 517 kts | 104° |
| 2026-05-05 05:08 | 14.99189 | 94.53450 | 36919 ft | 517 kts | 104° |
| 2026-05-05 05:08 | 14.97500 | 94.60670 | 36916 ft | 517 kts | 104° |
| 2026-05-05 05:09 | 14.95807 | 94.67893 | 36915 ft | 517 kts | 104° |
| 2026-05-05 05:09 | 14.94112 | 94.75116 | 36917 ft | 517 kts | 104° |
| 2026-05-05 05:10 | 14.92416 | 94.82337 | 36917 ft | 517 kts | 104° |
| 2026-05-05 05:10 | 14.90716 | 94.89561 | 36921 ft | 517 kts | 104° |
| 2026-05-05 05:11 | 14.89013 | 94.96783 | 36918 ft | 517 kts | 104° |
| 2026-05-05 05:11 | 14.87334 | 95.03897 | 36909 ft | 517 kts | 104° |
| 2026-05-05 05:12 | 14.85627 | 95.11120 | 36916 ft | 517 kts | 104° |
| 2026-05-05 05:12 | 14.83919 | 95.18335 | 36918 ft | 517 kts | 104° |
| 2026-05-05 05:13 | 14.82206 | 95.25558 | 36916 ft | 517 kts | 104° |
| 2026-05-05 05:13 | 14.80494 | 95.32771 | 36922 ft | 517 kts | 104° |
| 2026-05-05 05:14 | 14.78777 | 95.39989 | 36918 ft | 517 kts | 104° |
| 2026-05-05 05:14 | 14.77060 | 95.47199 | 36913 ft | 517 kts | 104° |
| 2026-05-05 05:15 | 14.75351 | 95.54367 | 36915 ft | 517 kts | 104° |
| 2026-05-05 05:15 | 14.73629 | 95.61576 | 36910 ft | 517 kts | 104° |
| 2026-05-05 05:16 | 14.71907 | 95.68778 | 36916 ft | 517 kts | 104° |
| 2026-05-05 05:16 | 14.70181 | 95.75983 | 36915 ft | 517 kts | 104° |
| 2026-05-05 05:17 | 14.68454 | 95.83182 | 36913 ft | 516 kts | 104° |
| 2026-05-05 05:17 | 14.66725 | 95.90380 | 36911 ft | 516 kts | 104° |
| 2026-05-05 05:18 | 14.64996 | 95.97569 | 36909 ft | 516 kts | 104° |
| 2026-05-05 05:18 | 14.63287 | 96.04661 | 36916 ft | 516 kts | 104° |
| 2026-05-05 05:19 | 14.61553 | 96.11847 | 36916 ft | 516 kts | 104° |
| 2026-05-05 05:19 | 14.59818 | 96.19033 | 36909 ft | 516 kts | 104° |
| 2026-05-05 05:20 | 14.58080 | 96.26217 | 36909 ft | 516 kts | 104° |
| 2026-05-05 05:20 | 14.56342 | 96.33391 | 36906 ft | 515 kts | 104° |
| 2026-05-05 05:21 | 14.54600 | 96.40568 | 36907 ft | 515 kts | 104° |
| 2026-05-05 05:21 | 14.52857 | 96.47745 | 36912 ft | 515 kts | 104° |
| 2026-05-05 05:22 | 14.51111 | 96.54919 | 36903 ft | 515 kts | 104° |
| 2026-05-05 05:22 | 14.49363 | 96.62095 | 36904 ft | 515 kts | 104° |
| 2026-05-05 05:23 | 14.47614 | 96.69264 | 36901 ft | 516 kts | 104° |
| 2026-05-05 05:23 | 14.45861 | 96.76440 | 36909 ft | 516 kts | 104° |
| 2026-05-05 05:24 | 14.44095 | 96.83655 | 36917 ft | 524 kts | 104° |
| 2026-05-05 05:24 | 14.42298 | 96.90990 | 36906 ft | 529 kts | 104° |
| 2026-05-05 05:25 | 14.40490 | 96.98358 | 36898 ft | 530 kts | 104° |
| 2026-05-05 05:25 | 14.38700 | 97.05643 | 36900 ft | 530 kts | 104° |
| 2026-05-05 05:26 | 14.36891 | 97.12997 | 36894 ft | 528 kts | 104° |
| 2026-05-05 05:26 | 14.35085 | 97.20325 | 36898 ft | 526 kts | 104° |
| 2026-05-05 05:27 | 14.33282 | 97.27633 | 36902 ft | 525 kts | 104° |
| 2026-05-05 05:27 | 14.30595 | 97.38504 | 36897 ft | 523 kts | 104° |
| 2026-05-05 05:28 | 14.28796 | 97.45768 | 36896 ft | 523 kts | 104° |
| 2026-05-05 05:28 | 14.26996 | 97.53028 | 36900 ft | 523 kts | 104° |
| 2026-05-05 05:29 | 14.25192 | 97.60293 | 36899 ft | 523 kts | 104° |
| 2026-05-05 05:29 | 14.23385 | 97.67561 | 36894 ft | 524 kts | 104° |
| 2026-05-05 05:30 | 14.21572 | 97.74843 | 36901 ft | 525 kts | 104° |
| 2026-05-05 05:30 | 14.19756 | 97.82127 | 36897 ft | 525 kts | 104° |
| 2026-05-05 05:31 | 14.17937 | 97.89416 | 36898 ft | 525 kts | 104° |
| 2026-05-05 05:31 | 14.16113 | 97.96711 | 36894 ft | 526 kts | 104° |
| 2026-05-05 05:32 | 14.14311 | 98.03912 | 36893 ft | 526 kts | 104° |
| 2026-05-05 05:32 | 14.12483 | 98.11206 | 36901 ft | 526 kts | 104° |
| 2026-05-05 05:33 | 14.10668 | 98.18504 | 36900 ft | 526 kts | 102° |
| 2026-05-05 05:33 | 14.09644 | 98.25946 | 36904 ft | 525 kts | 93° |
| 2026-05-05 05:34 | 14.09234 | 98.33453 | 36898 ft | 525 kts | 92° |
| 2026-05-05 05:34 | 14.08893 | 98.39696 | 36911 ft | 525 kts | 92° |
| 2026-05-05 05:35 | 14.08437 | 98.47198 | 36902 ft | 525 kts | 93° |
| 2026-05-05 05:35 | 14.07955 | 98.54700 | 36914 ft | 525 kts | 93° |
| 2026-05-05 05:36 | 14.07471 | 98.62196 | 36911 ft | 524 kts | 93° |
| 2026-05-05 05:36 | 14.06989 | 98.69684 | 36921 ft | 524 kts | 93° |
| 2026-05-05 05:37 | 14.06505 | 98.77176 | 36917 ft | 523 kts | 93° |
| 2026-05-05 05:37 | 14.06020 | 98.84649 | 36923 ft | 523 kts | 93° |
| 2026-05-05 05:38 | 14.05533 | 98.92111 | 36918 ft | 522 kts | 93° |
| 2026-05-05 05:38 | 14.05025 | 98.99563 | 36920 ft | 521 kts | 94° |
| 2026-05-05 05:39 | 14.04333 | 99.06896 | 36914 ft | 522 kts | 95° |
| 2026-05-05 05:39 | 14.03576 | 99.14328 | 36914 ft | 522 kts | 95° |
| 2026-05-05 05:40 | 14.02845 | 99.21772 | 36914 ft | 523 kts | 95° |
| 2026-05-05 05:40 | 14.02129 | 99.29227 | 36911 ft | 523 kts | 95° |
| 2026-05-05 05:41 | 14.01411 | 99.36689 | 36908 ft | 524 kts | 95° |
| 2026-05-05 05:41 | 14.00688 | 99.44145 | 36904 ft | 524 kts | 95° |
| 2026-05-05 05:42 | 13.99965 | 99.51588 | 36906 ft | 523 kts | 95° |
| 2026-05-05 05:42 | 13.99249 | 99.59039 | 36902 ft | 523 kts | 95° |
| 2026-05-05 05:43 | 13.98536 | 99.66482 | 36903 ft | 522 kts | 95° |
| 2026-05-05 05:43 | 13.97821 | 99.73923 | 36899 ft | 522 kts | 95° |
| 2026-05-05 05:44 | 13.97103 | 99.81352 | 36898 ft | 521 kts | 95° |
| 2026-05-05 05:44 | 13.96382 | 99.88780 | 36904 ft | 522 kts | 95° |
| 2026-05-05 05:45 | 13.95659 | 99.96213 | 36901 ft | 522 kts | 95° |
| 2026-05-05 05:45 | 13.94943 | 100.03551 | 36899 ft | 522 kts | 95° |
| 2026-05-05 05:46 | 13.94215 | 100.10985 | 36900 ft | 522 kts | 95° |
| 2026-05-05 05:46 | 13.93484 | 100.18425 | 36903 ft | 522 kts | 95° |
| 2026-05-05 05:47 | 13.92752 | 100.25862 | 36905 ft | 522 kts | 95° |
| 2026-05-05 05:47 | 13.92016 | 100.33308 | 36908 ft | 522 kts | 95° |
| 2026-05-05 05:48 | 13.91279 | 100.40737 | 36910 ft | 522 kts | 95° |
| 2026-05-05 05:48 | 13.90540 | 100.48170 | 36910 ft | 522 kts | 95° |
| 2026-05-05 05:49 | 13.89800 | 100.55598 | 36916 ft | 522 kts | 95° |
| 2026-05-05 05:49 | 13.89380 | 100.63043 | 36913 ft | 521 kts | 89° |
| 2026-05-05 05:50 | 13.89576 | 100.70488 | 36919 ft | 521 kts | 88° |
| 2026-05-05 05:50 | 13.89820 | 100.77940 | 36910 ft | 521 kts | 88° |
| 2026-05-05 05:51 | 13.90028 | 100.85395 | 36910 ft | 521 kts | 88° |
| 2026-05-05 05:51 | 13.90205 | 100.92852 | 36909 ft | 521 kts | 88° |
| 2026-05-05 05:52 | 13.90372 | 101.00219 | 36907 ft | 521 kts | 88° |
| 2026-05-05 05:52 | 13.90538 | 101.07601 | 36903 ft | 521 kts | 88° |
| 2026-05-05 05:53 | 13.90706 | 101.15055 | 36907 ft | 521 kts | 88° |
| 2026-05-05 05:53 | 13.90872 | 101.22510 | 36904 ft | 521 kts | 88° |
| 2026-05-05 05:54 | 13.91036 | 101.29960 | 36911 ft | 521 kts | 88° |
| 2026-05-05 05:54 | 13.91198 | 101.37418 | 36914 ft | 521 kts | 88° |
| 2026-05-05 05:55 | 13.91358 | 101.44880 | 36914 ft | 522 kts | 88° |
| 2026-05-05 05:55 | 13.91515 | 101.52342 | 36915 ft | 522 kts | 88° |
| 2026-05-05 05:56 | 13.91670 | 101.59815 | 36916 ft | 522 kts | 88° |
| 2026-05-05 05:56 | 13.91823 | 101.67281 | 36918 ft | 522 kts | 88° |
| 2026-05-05 05:57 | 13.91974 | 101.74755 | 36915 ft | 522 kts | 89° |
| 2026-05-05 05:57 | 13.92122 | 101.82221 | 36918 ft | 522 kts | 89° |
| 2026-05-05 05:58 | 13.92268 | 101.89695 | 36939 ft | 522 kts | 89° |
| 2026-05-05 05:58 | 13.92412 | 101.97164 | 36936 ft | 521 kts | 89° |
| 2026-05-05 05:59 | 13.92551 | 102.04515 | 36935 ft | 521 kts | 89° |
| 2026-05-05 05:59 | 13.92690 | 102.11968 | 36936 ft | 521 kts | 89° |
| 2026-05-05 06:00 | 13.92826 | 102.19415 | 36940 ft | 521 kts | 89° |
| 2026-05-05 06:00 | 13.92961 | 102.26873 | 36940 ft | 521 kts | 89° |
| 2026-05-05 06:01 | 13.93093 | 102.34339 | 36938 ft | 522 kts | 89° |
| 2026-05-05 06:01 | 13.93223 | 102.41802 | 36935 ft | 522 kts | 89° |
| 2026-05-05 06:02 | 13.93351 | 102.49263 | 36935 ft | 522 kts | 89° |
| 2026-05-05 06:02 | 13.93477 | 102.56734 | 36938 ft | 522 kts | 89° |
| 2026-05-05 06:03 | 13.93600 | 102.64161 | 36927 ft | 522 kts | 89° |
| 2026-05-05 06:03 | 13.93721 | 102.71629 | 36934 ft | 522 kts | 89° |
| 2026-05-05 06:04 | 13.93839 | 102.79094 | 36925 ft | 522 kts | 89° |
| 2026-05-05 06:04 | 13.93956 | 102.86558 | 36926 ft | 521 kts | 89° |
| 2026-05-05 06:05 | 13.94070 | 102.94008 | 36920 ft | 521 kts | 89° |
| 2026-05-05 06:05 | 13.94180 | 103.01361 | 36921 ft | 520 kts | 90° |
| 2026-05-05 06:06 | 13.94289 | 103.08810 | 36918 ft | 520 kts | 90° |
| 2026-05-05 06:06 | 13.94396 | 103.16254 | 36921 ft | 520 kts | 90° |
| 2026-05-05 06:07 | 13.94501 | 103.23689 | 36916 ft | 520 kts | 90° |
| 2026-05-05 06:07 | 13.94603 | 103.31128 | 36918 ft | 520 kts | 90° |
| 2026-05-05 06:08 | 13.94704 | 103.38563 | 36916 ft | 519 kts | 90° |
| 2026-05-05 06:08 | 13.94801 | 103.46001 | 36915 ft | 519 kts | 90° |
| 2026-05-05 06:09 | 13.94897 | 103.53437 | 36907 ft | 520 kts | 89° |
| 2026-05-05 06:09 | 13.94991 | 103.60899 | 36917 ft | 522 kts | 89° |
| 2026-05-05 06:10 | 13.95083 | 103.68377 | 36916 ft | 523 kts | 89° |
| 2026-05-05 06:10 | 13.95172 | 103.75884 | 36913 ft | 525 kts | 89° |
| 2026-05-05 06:11 | 13.95260 | 103.83401 | 36911 ft | 525 kts | 89° |
| 2026-05-05 06:11 | 13.95345 | 103.90922 | 36908 ft | 526 kts | 89° |
| 2026-05-05 06:12 | 13.95428 | 103.98453 | 36911 ft | 526 kts | 89° |
| 2026-05-05 06:12 | 13.95508 | 104.05877 | 36908 ft | 526 kts | 89° |
| 2026-05-05 06:13 | 13.95586 | 104.13397 | 36903 ft | 525 kts | 89° |
| 2026-05-05 06:13 | 13.95662 | 104.20914 | 36904 ft | 525 kts | 89° |
| 2026-05-05 06:14 | 13.95729 | 104.27724 | 36901 ft | 524 kts | 89° |
| 2026-05-05 06:14 | 13.95800 | 104.35214 | 36898 ft | 522 kts | 89° |
| 2026-05-05 06:15 | 13.95869 | 104.42687 | 36897 ft | 522 kts | 89° |
| 2026-05-05 06:15 | 13.95936 | 104.50155 | 36896 ft | 522 kts | 89° |
| 2026-05-05 06:16 | 13.96000 | 104.57624 | 36890 ft | 522 kts | 89° |
| 2026-05-05 06:16 | 13.96062 | 104.65100 | 36890 ft | 522 kts | 89° |
| 2026-05-05 06:17 | 13.96122 | 104.72576 | 36890 ft | 523 kts | 89° |
| 2026-05-05 06:17 | 13.96180 | 104.80060 | 36888 ft | 523 kts | 89° |
| 2026-05-05 06:18 | 13.96234 | 104.87495 | 36889 ft | 523 kts | 90° |
| 2026-05-05 06:18 | 13.96288 | 104.94982 | 36887 ft | 523 kts | 90° |
| 2026-05-05 06:19 | 13.96337 | 105.02348 | 36885 ft | 523 kts | 90° |
| 2026-05-05 06:19 | 13.96386 | 105.09825 | 36879 ft | 522 kts | 90° |
| 2026-05-05 06:20 | 13.96432 | 105.17303 | 36883 ft | 522 kts | 90° |
| 2026-05-05 06:20 | 13.96476 | 105.24763 | 36875 ft | 522 kts | 90° |
| 2026-05-05 06:21 | 13.96517 | 105.32222 | 36873 ft | 522 kts | 90° |
| 2026-05-05 06:21 | 13.96550 | 105.38433 | 36870 ft | 522 kts | 90° |
| 2026-05-05 06:22 | 13.96587 | 105.45904 | 36869 ft | 522 kts | 90° |
| 2026-05-05 06:22 | 13.96622 | 105.53385 | 36869 ft | 523 kts | 90° |
| 2026-05-05 06:23 | 13.96655 | 105.60865 | 36867 ft | 523 kts | 90° |
| 2026-05-05 06:23 | 13.96686 | 105.68346 | 36871 ft | 523 kts | 90° |
| 2026-05-05 06:24 | 13.96714 | 105.75829 | 36867 ft | 522 kts | 90° |
| 2026-05-05 06:24 | 13.96740 | 105.83302 | 36870 ft | 522 kts | 90° |
| 2026-05-05 06:25 | 13.96764 | 105.90773 | 36866 ft | 522 kts | 90° |
| 2026-05-05 06:25 | 13.96785 | 105.98233 | 36870 ft | 522 kts | 90° |
| 2026-05-05 06:26 | 13.96804 | 106.05599 | 36868 ft | 522 kts | 90° |
| 2026-05-05 06:26 | 13.96821 | 106.13067 | 36867 ft | 522 kts | 90° |
| 2026-05-05 06:27 | 13.96842 | 106.24202 | 36866 ft | 521 kts | 90° |
| 2026-05-05 06:28 | 13.96853 | 106.31666 | 36863 ft | 521 kts | 90° |
| 2026-05-05 06:28 | 13.96862 | 106.39130 | 36866 ft | 522 kts | 90° |
| 2026-05-05 06:29 | 13.96868 | 106.46589 | 36867 ft | 522 kts | 90° |
| 2026-05-05 06:29 | 13.96873 | 106.54046 | 36869 ft | 522 kts | 90° |
| 2026-05-05 06:30 | 13.96875 | 106.61518 | 36868 ft | 522 kts | 90° |
| 2026-05-05 06:30 | 13.96874 | 106.68986 | 36867 ft | 522 kts | 90° |
| 2026-05-05 06:31 | 13.96872 | 106.76443 | 36872 ft | 522 kts | 90° |
| 2026-05-05 06:31 | 13.96867 | 106.83883 | 36866 ft | 522 kts | 90° |
| 2026-05-05 06:32 | 13.96860 | 106.91284 | 36868 ft | 522 kts | 90° |
| 2026-05-05 06:32 | 13.96851 | 106.98739 | 36864 ft | 523 kts | 90° |
| 2026-05-05 06:33 | 13.96840 | 107.06076 | 36866 ft | 523 kts | 90° |
| 2026-05-05 06:33 | 13.96826 | 107.13591 | 36863 ft | 526 kts | 90° |
| 2026-05-05 06:34 | 13.96808 | 107.21392 | 36865 ft | 527 kts | 90° |
| 2026-05-05 06:34 | 13.96790 | 107.28683 | 36863 ft | 529 kts | 90° |
| 2026-05-05 06:35 | 13.96769 | 107.36220 | 36871 ft | 529 kts | 90° |
| 2026-05-05 06:35 | 13.96746 | 107.43799 | 36865 ft | 530 kts | 90° |
| 2026-05-05 06:36 | 13.96720 | 107.51378 | 36874 ft | 530 kts | 90° |
| 2026-05-05 06:36 | 13.96693 | 107.58920 | 36872 ft | 531 kts | 90° |
| 2026-05-05 06:37 | 13.96662 | 107.66516 | 36876 ft | 530 kts | 90° |
| 2026-05-05 06:37 | 13.96629 | 107.74084 | 36878 ft | 529 kts | 90° |
| 2026-05-05 06:38 | 13.96594 | 107.81656 | 36892 ft | 529 kts | 90° |
| 2026-05-05 06:38 | 13.96557 | 107.89220 | 36905 ft | 528 kts | 90° |
| 2026-05-05 06:39 | 13.96518 | 107.96719 | 36906 ft | 528 kts | 90° |
| 2026-05-05 06:39 | 13.96476 | 108.04190 | 36918 ft | 528 kts | 90° |
| 2026-05-05 06:40 | 13.96432 | 108.11693 | 36921 ft | 527 kts | 90° |
| 2026-05-05 06:40 | 13.96386 | 108.19205 | 36928 ft | 528 kts | 90° |
| 2026-05-05 06:41 | 13.96337 | 108.26724 | 36927 ft | 528 kts | 90° |
| 2026-05-05 06:41 | 13.96286 | 108.34279 | 36927 ft | 528 kts | 90° |
| 2026-05-05 06:42 | 13.96232 | 108.41830 | 36923 ft | 529 kts | 90° |
| 2026-05-05 06:42 | 13.96176 | 108.49395 | 36931 ft | 528 kts | 90° |
| 2026-05-05 06:43 | 13.96118 | 108.56954 | 36934 ft | 528 kts | 90° |
| 2026-05-05 06:43 | 13.96057 | 108.64515 | 36928 ft | 528 kts | 90° |
| 2026-05-05 06:44 | 13.95994 | 108.72069 | 36927 ft | 528 kts | 90° |
| 2026-05-05 06:44 | 13.95929 | 108.79622 | 36923 ft | 528 kts | 90° |
| 2026-05-05 06:45 | 13.95862 | 108.87168 | 36917 ft | 527 kts | 90° |
| 2026-05-05 06:45 | 13.95792 | 108.94712 | 36917 ft | 527 kts | 90° |
| 2026-05-05 06:46 | 13.95721 | 109.02132 | 36912 ft | 526 kts | 90° |
| 2026-05-05 06:46 | 13.95716 | 109.09669 | 36911 ft | 526 kts | 89° |
| 2026-05-05 06:47 | 13.95843 | 109.17190 | 36908 ft | 526 kts | 88° |
| 2026-05-05 06:47 | 13.95967 | 109.24689 | 36905 ft | 526 kts | 88° |
| 2026-05-05 06:48 | 13.96065 | 109.32224 | 36902 ft | 526 kts | 89° |
| 2026-05-05 06:48 | 13.96154 | 109.39743 | 36902 ft | 526 kts | 89° |
| 2026-05-05 06:49 | 13.96244 | 109.47281 | 36908 ft | 527 kts | 89° |
| 2026-05-05 06:49 | 13.96329 | 109.54763 | 36904 ft | 527 kts | 89° |
| 2026-05-05 06:50 | 13.96397 | 109.62278 | 36898 ft | 527 kts | 89° |
| 2026-05-05 06:50 | 13.96459 | 109.69803 | 36903 ft | 526 kts | 89° |
| 2026-05-05 06:51 | 13.96522 | 109.77337 | 36901 ft | 526 kts | 89° |
| 2026-05-05 06:51 | 13.96584 | 109.84877 | 36902 ft | 526 kts | 89° |
| 2026-05-05 06:52 | 13.96643 | 109.92412 | 36901 ft | 526 kts | 89° |
| 2026-05-05 06:52 | 13.96700 | 109.99944 | 36900 ft | 526 kts | 89° |
| 2026-05-05 06:53 | 13.96768 | 110.07369 | 36900 ft | 526 kts | 89° |
| 2026-05-05 06:53 | 13.96846 | 110.14897 | 36898 ft | 526 kts | 89° |
| 2026-05-05 06:54 | 13.96922 | 110.22425 | 36897 ft | 526 kts | 89° |
| 2026-05-05 06:54 | 13.96993 | 110.29951 | 36900 ft | 526 kts | 89° |
| 2026-05-05 06:55 | 13.97060 | 110.37487 | 36890 ft | 526 kts | 89° |
| 2026-05-05 06:55 | 13.97125 | 110.45018 | 36895 ft | 526 kts | 89° |
| 2026-05-05 06:56 | 13.97188 | 110.52563 | 36897 ft | 527 kts | 89° |
| 2026-05-05 06:56 | 13.97249 | 110.60108 | 36897 ft | 528 kts | 89° |
| 2026-05-05 06:57 | 13.97308 | 110.67672 | 36891 ft | 528 kts | 89° |
| 2026-05-05 06:57 | 13.97364 | 110.75244 | 36888 ft | 529 kts | 89° |
| 2026-05-05 06:58 | 13.97418 | 110.82803 | 36886 ft | 529 kts | 89° |
| 2026-05-05 06:58 | 13.97470 | 110.90383 | 36886 ft | 531 kts | 89° |
| 2026-05-05 06:59 | 13.97520 | 110.97988 | 36887 ft | 532 kts | 89° |
| 2026-05-05 06:59 | 13.97567 | 111.05508 | 36889 ft | 533 kts | 89° |
| 2026-05-05 07:00 | 13.97612 | 111.13135 | 36885 ft | 533 kts | 89° |
| 2026-05-05 07:00 | 13.97654 | 111.20775 | 36885 ft | 535 kts | 89° |
| 2026-05-05 07:01 | 13.97695 | 111.28370 | 36890 ft | 536 kts | 89° |
| 2026-05-05 07:01 | 13.97733 | 111.36093 | 36886 ft | 536 kts | 89° |
| 2026-05-05 07:02 | 13.97768 | 111.43724 | 36882 ft | 536 kts | 89° |
| 2026-05-05 07:02 | 13.97802 | 111.51403 | 36882 ft | 536 kts | 89° |
| 2026-05-05 07:03 | 13.97834 | 111.59106 | 36882 ft | 536 kts | 89° |
| 2026-05-05 07:03 | 13.97865 | 111.66725 | 36879 ft | 536 kts | 89° |
| 2026-05-05 07:04 | 13.97893 | 111.74394 | 36883 ft | 535 kts | 89° |
| 2026-05-05 07:04 | 13.97918 | 111.82055 | 36881 ft | 535 kts | 89° |
| 2026-05-05 07:05 | 13.97941 | 111.89719 | 36878 ft | 535 kts | 89° |
| 2026-05-05 07:05 | 13.97962 | 111.97373 | 36880 ft | 535 kts | 89° |
| 2026-05-05 07:06 | 13.97980 | 112.04927 | 36879 ft | 535 kts | 89° |
| 2026-05-05 07:06 | 13.97996 | 112.12576 | 36880 ft | 535 kts | 89° |
| 2026-05-05 07:07 | 13.98010 | 112.20233 | 36876 ft | 535 kts | 89° |
| 2026-05-05 07:07 | 13.98021 | 112.27893 | 36877 ft | 535 kts | 89° |
| 2026-05-05 07:08 | 13.98029 | 112.35556 | 36875 ft | 535 kts | 89° |
| 2026-05-05 07:08 | 13.98036 | 112.43226 | 36874 ft | 535 kts | 89° |
| 2026-05-05 07:09 | 13.98040 | 112.50888 | 36875 ft | 535 kts | 89° |
| 2026-05-05 07:09 | 13.98041 | 112.58545 | 36873 ft | 535 kts | 89° |
| 2026-05-05 07:10 | 13.98040 | 112.66199 | 36871 ft | 535 kts | 89° |
| 2026-05-05 07:10 | 13.98038 | 112.72558 | 36872 ft | 535 kts | 89° |
| 2026-05-05 07:11 | 13.98033 | 112.80217 | 36872 ft | 534 kts | 89° |
| 2026-05-05 07:11 | 13.98025 | 112.87867 | 36868 ft | 534 kts | 89° |
| 2026-05-05 07:12 | 13.98015 | 112.95506 | 36870 ft | 534 kts | 89° |
| 2026-05-05 07:12 | 13.98003 | 113.03024 | 36868 ft | 533 kts | 89° |
| 2026-05-05 07:13 | 13.97987 | 113.10646 | 36868 ft | 533 kts | 89° |
| 2026-05-05 07:13 | 13.97967 | 113.18253 | 36868 ft | 533 kts | 89° |
| 2026-05-05 07:14 | 13.97945 | 113.25869 | 36868 ft | 532 kts | 89° |
| 2026-05-05 07:14 | 13.97921 | 113.33484 | 36869 ft | 532 kts | 89° |
| 2026-05-05 07:15 | 13.97895 | 113.41098 | 36869 ft | 532 kts | 89° |
| 2026-05-05 07:15 | 13.97867 | 113.48708 | 36873 ft | 532 kts | 89° |
| 2026-05-05 07:16 | 13.97836 | 113.56320 | 36868 ft | 532 kts | 89° |
| 2026-05-05 07:16 | 13.97802 | 113.63886 | 36866 ft | 531 kts | 89° |
| 2026-05-05 07:17 | 13.97767 | 113.71493 | 36866 ft | 531 kts | 89° |
| 2026-05-05 07:17 | 13.97729 | 113.79094 | 36873 ft | 531 kts | 89° |
| 2026-05-05 07:18 | 13.97688 | 113.86700 | 36871 ft | 531 kts | 89° |
| 2026-05-05 07:18 | 13.97645 | 113.94302 | 36871 ft | 531 kts | 89° |
| 2026-05-05 07:19 | 13.97601 | 114.01794 | 36872 ft | 531 kts | 89° |
| 2026-05-05 07:19 | 13.97554 | 114.09395 | 36872 ft | 531 kts | 90° |
| 2026-05-05 07:20 | 13.97504 | 114.16998 | 36868 ft | 531 kts | 90° |
| 2026-05-05 07:20 | 13.97452 | 114.24606 | 36869 ft | 531 kts | 90° |
| 2026-05-05 07:21 | 13.97397 | 114.32205 | 36868 ft | 531 kts | 90° |
| 2026-05-05 07:21 | 13.97341 | 114.39770 | 36865 ft | 531 kts | 90° |
| 2026-05-05 07:22 | 13.97444 | 114.47378 | 36869 ft | 530 kts | 84° |
| 2026-05-05 07:22 | 13.98149 | 114.54894 | 36868 ft | 529 kts | 83° |
| 2026-05-05 07:23 | 13.98919 | 114.62320 | 36869 ft | 530 kts | 83° |
| 2026-05-05 07:23 | 13.99667 | 114.69858 | 36868 ft | 530 kts | 83° |
| 2026-05-05 07:24 | 14.00384 | 114.77412 | 36866 ft | 530 kts | 83° |
| 2026-05-05 07:24 | 14.01079 | 114.84860 | 36866 ft | 530 kts | 84° |
| 2026-05-05 07:25 | 14.01782 | 114.92390 | 36865 ft | 530 kts | 84° |
| 2026-05-05 07:25 | 14.02489 | 114.99965 | 36866 ft | 530 kts | 84° |
| 2026-05-05 07:26 | 14.02598 | 115.01130 | 36870 ft | 530 kts | 84° |
| 2026-05-05 07:27 | 14.04635 | 115.23089 | 36866 ft | 530 kts | 84° |
| 2026-05-05 07:27 | 14.05331 | 115.30637 | 36866 ft | 530 kts | 84° |
| 2026-05-05 07:28 | 14.05565 | 115.33181 | 36866 ft | 530 kts | 84° |
| 2026-05-05 07:30 | 14.08736 | 115.67984 | 36865 ft | 531 kts | 84° |
| 2026-05-05 07:30 | 14.09756 | 115.79291 | 36863 ft | 531 kts | 84° |
| 2026-05-05 07:31 | 14.10432 | 115.86825 | 36863 ft | 531 kts | 84° |
| 2026-05-05 07:31 | 14.11106 | 115.94358 | 36860 ft | 530 kts | 84° |
| 2026-05-05 07:32 | 14.11769 | 116.01793 | 36861 ft | 530 kts | 84° |
| 2026-05-05 07:32 | 14.12440 | 116.09339 | 36858 ft | 530 kts | 84° |
| 2026-05-05 07:33 | 14.13109 | 116.16904 | 36862 ft | 531 kts | 84° |
| 2026-05-05 07:33 | 14.13775 | 116.24453 | 36861 ft | 531 kts | 84° |
| 2026-05-05 07:34 | 14.14434 | 116.31953 | 36861 ft | 531 kts | 84° |
| 2026-05-05 07:34 | 14.15018 | 116.38622 | 36859 ft | 531 kts | 84° |
| 2026-05-05 07:35 | 14.15660 | 116.45971 | 36860 ft | 531 kts | 84° |
| 2026-05-05 07:35 | 14.16315 | 116.53508 | 36860 ft | 530 kts | 84° |
| 2026-05-05 07:36 | 14.16967 | 116.61027 | 36863 ft | 530 kts | 84° |
| 2026-05-05 07:36 | 14.17531 | 116.67563 | 36856 ft | 529 kts | 84° |
| 2026-05-05 07:37 | 14.18181 | 116.75116 | 36858 ft | 529 kts | 84° |
| 2026-05-05 07:37 | 14.18829 | 116.82667 | 36858 ft | 529 kts | 84° |
| 2026-05-05 07:38 | 14.19376 | 116.89224 | 36858 ft | 529 kts | 86° |
| 2026-05-05 07:38 | 14.19306 | 116.95869 | 36850 ft | 528 kts | 95° |
| 2026-05-05 07:39 | 14.18646 | 117.02160 | 36861 ft | 529 kts | 96° |
| 2026-05-05 07:39 | 14.17810 | 117.09697 | 36858 ft | 530 kts | 96° |
| 2026-05-05 07:40 | 14.17011 | 117.17247 | 36858 ft | 530 kts | 96° |
| 2026-05-05 07:40 | 14.16240 | 117.24800 | 36858 ft | 530 kts | 95° |
| 2026-05-05 07:41 | 14.15475 | 117.32349 | 36856 ft | 529 kts | 96° |
| 2026-05-05 07:41 | 14.14707 | 117.39884 | 36857 ft | 528 kts | 96° |
| 2026-05-05 07:42 | 14.13935 | 117.47403 | 36857 ft | 528 kts | 96° |
| 2026-05-05 07:42 | 14.13161 | 117.54916 | 36857 ft | 527 kts | 96° |
| 2026-05-05 07:43 | 14.12385 | 117.62419 | 36854 ft | 526 kts | 96° |
| 2026-05-05 07:43 | 14.11609 | 117.69908 | 36855 ft | 525 kts | 96° |
| 2026-05-05 07:44 | 14.10831 | 117.77391 | 36852 ft | 525 kts | 96° |
| 2026-05-05 07:44 | 14.10056 | 117.84824 | 36853 ft | 525 kts | 96° |
| 2026-05-05 07:45 | 14.09274 | 117.92307 | 36853 ft | 525 kts | 96° |
| 2026-05-05 07:45 | 14.08489 | 117.99789 | 36852 ft | 526 kts | 96° |
| 2026-05-05 07:46 | 14.07713 | 118.07163 | 36827 ft | 524 kts | 96° |
| 2026-05-05 07:46 | 14.07322 | 118.10872 | 36384 ft | 518 kts | 96° |
| 2026-05-05 07:46 | 14.06934 | 118.14542 | 35740 ft | 513 kts | 96° |
| 2026-05-05 07:47 | 14.06549 | 118.18191 | 35090 ft | 510 kts | 96° |
| 2026-05-05 07:47 | 14.06166 | 118.21802 | 34481 ft | 506 kts | 96° |
| 2026-05-05 07:47 | 14.05785 | 118.25395 | 33925 ft | 502 kts | 96° |
| 2026-05-05 07:47 | 14.05407 | 118.28948 | 33346 ft | 497 kts | 96° |
| 2026-05-05 07:48 | 14.05046 | 118.32345 | 33103 ft | 486 kts | 96° |
| 2026-05-05 07:48 | 14.04683 | 118.35756 | 32920 ft | 476 kts | 96° |
| 2026-05-05 07:48 | 14.04322 | 118.39145 | 32539 ft | 476 kts | 96° |
| 2026-05-05 07:48 | 14.03958 | 118.42555 | 32212 ft | 484 kts | 96° |
| 2026-05-05 07:49 | 14.03711 | 118.44863 | 32017 ft | 498 kts | 96° |
| 2026-05-05 07:49 | 14.03192 | 118.49717 | 31593 ft | 513 kts | 96° |
| 2026-05-05 07:49 | 14.02802 | 118.53355 | 31256 ft | 510 kts | 96° |
| 2026-05-05 07:49 | 14.02412 | 118.56984 | 30932 ft | 510 kts | 96° |
| 2026-05-05 07:50 | 14.02022 | 118.60612 | 30612 ft | 509 kts | 96° |
| 2026-05-05 07:50 | 14.01632 | 118.64233 | 30297 ft | 508 kts | 97° |
| 2026-05-05 07:50 | 14.01244 | 118.67836 | 29985 ft | 506 kts | 97° |
| 2026-05-05 07:50 | 14.00987 | 118.70217 | 29747 ft | 504 kts | 97° |
| 2026-05-05 07:51 | 14.00601 | 118.73795 | 29385 ft | 501 kts | 97° |
| 2026-05-05 07:51 | 14.00215 | 118.77351 | 29016 ft | 498 kts | 97° |
| 2026-05-05 07:51 | 13.99835 | 118.80859 | 28655 ft | 494 kts | 97° |
| 2026-05-05 07:51 | 13.99454 | 118.84365 | 28308 ft | 490 kts | 97° |
| 2026-05-05 07:52 | 13.99077 | 118.87839 | 27945 ft | 488 kts | 97° |
| 2026-05-05 07:52 | 13.98697 | 118.91325 | 27609 ft | 491 kts | 97° |
| 2026-05-05 07:52 | 13.98316 | 118.94816 | 27266 ft | 492 kts | 97° |
| 2026-05-05 07:52 | 13.97934 | 118.98317 | 26937 ft | 490 kts | 97° |
| 2026-05-05 07:53 | 13.97565 | 119.01702 | 26604 ft | 487 kts | 97° |
| 2026-05-05 07:53 | 13.97188 | 119.05151 | 26271 ft | 484 kts | 97° |
| 2026-05-05 07:53 | 13.96812 | 119.08583 | 25942 ft | 481 kts | 97° |
| 2026-05-05 07:53 | 13.96438 | 119.11997 | 25620 ft | 478 kts | 97° |
| 2026-05-05 07:54 | 13.96065 | 119.15392 | 25296 ft | 476 kts | 97° |
| 2026-05-05 07:54 | 13.95693 | 119.18767 | 24981 ft | 474 kts | 97° |
| 2026-05-05 07:54 | 13.95323 | 119.22130 | 24670 ft | 472 kts | 98° |
| 2026-05-05 07:54 | 13.94954 | 119.25473 | 24361 ft | 470 kts | 97° |
| 2026-05-05 07:55 | 13.94586 | 119.28810 | 24054 ft | 468 kts | 97° |
| 2026-05-05 07:55 | 13.94219 | 119.32131 | 23753 ft | 466 kts | 97° |
| 2026-05-05 07:55 | 13.93853 | 119.35436 | 23450 ft | 464 kts | 97° |
| 2026-05-05 07:55 | 13.93487 | 119.38737 | 23097 ft | 463 kts | 97° |
| 2026-05-05 07:56 | 13.93123 | 119.42017 | 22743 ft | 461 kts | 97° |
| 2026-05-05 07:56 | 13.92760 | 119.45286 | 22386 ft | 459 kts | 97° |
| 2026-05-05 07:56 | 13.92398 | 119.48539 | 22037 ft | 456 kts | 97° |
| 2026-05-05 07:56 | 13.92037 | 119.51778 | 21692 ft | 454 kts | 97° |
| 2026-05-05 07:57 | 13.91678 | 119.54994 | 21351 ft | 452 kts | 97° |
| 2026-05-05 07:57 | 13.91321 | 119.58198 | 21014 ft | 449 kts | 97° |
| 2026-05-05 07:57 | 13.90969 | 119.61341 | 20680 ft | 447 kts | 97° |
| 2026-05-05 07:57 | 13.90611 | 119.64546 | 20346 ft | 444 kts | 97° |
| 2026-05-05 07:58 | 13.90263 | 119.67654 | 20022 ft | 441 kts | 97° |
| 2026-05-05 07:58 | 13.89912 | 119.70781 | 19700 ft | 439 kts | 97° |
| 2026-05-05 07:58 | 13.89563 | 119.73890 | 19379 ft | 436 kts | 97° |
| 2026-05-05 07:58 | 13.89216 | 119.76980 | 19061 ft | 434 kts | 97° |
| 2026-05-05 07:59 | 13.88870 | 119.80056 | 18748 ft | 431 kts | 97° |
| 2026-05-05 07:59 | 13.88520 | 119.83157 | 18435 ft | 429 kts | 97° |
| 2026-05-05 07:59 | 13.88184 | 119.86140 | 18134 ft | 427 kts | 97° |
| 2026-05-05 07:59 | 13.87842 | 119.89164 | 17780 ft | 424 kts | 97° |
| 2026-05-05 08:00 | 13.87503 | 119.92168 | 17427 ft | 422 kts | 97° |
| 2026-05-05 08:00 | 13.87164 | 119.95162 | 17078 ft | 419 kts | 97° |
| 2026-05-05 08:00 | 13.86828 | 119.98130 | 16733 ft | 417 kts | 97° |
| 2026-05-05 08:00 | 13.86501 | 120.01009 | 16398 ft | 415 kts | 97° |
| 2026-05-05 08:01 | 13.86171 | 120.03948 | 16060 ft | 409 kts | 95° |
| 2026-05-05 08:01 | 13.86302 | 120.06860 | 15829 ft | 413 kts | 77° |
| 2026-05-05 08:01 | 13.87374 | 120.09587 | 15824 ft | 412 kts | 59° |
| 2026-05-05 08:01 | 13.89159 | 120.11871 | 15765 ft | 407 kts | 44° |
| 2026-05-05 08:02 | 13.91381 | 120.13537 | 15577 ft | 383 kts | 27° |
| 2026-05-05 08:02 | 13.93745 | 120.14629 | 15133 ft | 364 kts | 24° |
| 2026-05-05 08:02 | 13.96048 | 120.15628 | 14568 ft | 357 kts | 23° |
| 2026-05-05 08:02 | 13.98346 | 120.16620 | 14104 ft | 358 kts | 23° |
| 2026-05-05 08:03 | 14.00626 | 120.17613 | 13779 ft | 353 kts | 24° |
| 2026-05-05 08:03 | 14.02870 | 120.18600 | 13429 ft | 349 kts | 24° |
| 2026-05-05 08:03 | 14.05086 | 120.19585 | 13005 ft | 346 kts | 24° |
| 2026-05-05 08:03 | 14.07287 | 120.20569 | 12564 ft | 344 kts | 25° |
| 2026-05-05 08:04 | 14.09474 | 120.21552 | 12143 ft | 342 kts | 25° |
| 2026-05-05 08:04 | 14.11645 | 120.22529 | 11743 ft | 340 kts | 25° |
| 2026-05-05 08:04 | 14.13801 | 120.23501 | 11357 ft | 337 kts | 26° |
| 2026-05-05 08:04 | 14.15928 | 120.24461 | 10978 ft | 335 kts | 26° |
| 2026-05-05 08:05 | 14.18052 | 120.25420 | 10590 ft | 333 kts | 26° |
| 2026-05-05 08:05 | 14.20163 | 120.26373 | 10181 ft | 329 kts | 26° |
| 2026-05-05 08:05 | 14.22256 | 120.27320 | 9759 ft | 329 kts | 26° |
| 2026-05-05 08:05 | 14.24349 | 120.28267 | 9315 ft | 328 kts | 26° |
| 2026-05-05 08:06 | 14.26431 | 120.29208 | 8933 ft | 325 kts | 26° |
| 2026-05-05 08:06 | 14.28477 | 120.30132 | 8479 ft | 316 kts | 26° |
| 2026-05-05 08:06 | 14.30484 | 120.31039 | 7770 ft | 314 kts | 26° |
| 2026-05-05 08:06 | 14.32481 | 120.31943 | 7062 ft | 312 kts | 26° |
| 2026-05-05 08:07 | 14.34463 | 120.32840 | 6431 ft | 309 kts | 26° |
| 2026-05-05 08:07 | 14.36414 | 120.33723 | 5788 ft | 304 kts | 26° |
| 2026-05-05 08:07 | 14.38339 | 120.34621 | 5327 ft | 306 kts | 31° |
| 2026-05-05 08:07 | 14.39876 | 120.36060 | 5102 ft | 293 kts | 61° |
| 2026-05-05 08:08 | 14.40430 | 120.37937 | 4995 ft | 267 kts | 87° |
| 2026-05-05 08:08 | 14.40378 | 120.39758 | 4977 ft | 243 kts | 97° |
| 2026-05-05 08:08 | 14.40067 | 120.41389 | 4968 ft | 221 kts | 104° |
| 2026-05-05 08:08 | 14.39689 | 120.42864 | 4943 ft | 199 kts | 104° |
| 2026-05-05 08:09 | 14.39335 | 120.44201 | 4978 ft | 188 kts | 104° |
| 2026-05-05 08:09 | 14.38996 | 120.45485 | 5008 ft | 186 kts | 104° |
| 2026-05-05 08:09 | 14.38667 | 120.46737 | 5011 ft | 180 kts | 104° |
| 2026-05-05 08:09 | 14.38338 | 120.47995 | 4993 ft | 177 kts | 104° |
| 2026-05-05 08:10 | 14.38029 | 120.49186 | 4982 ft | 172 kts | 104° |
| 2026-05-05 08:10 | 14.37718 | 120.50390 | 4987 ft | 175 kts | 104° |
| 2026-05-05 08:10 | 14.37404 | 120.51612 | 4986 ft | 176 kts | 104° |
| 2026-05-05 08:10 | 14.37090 | 120.52835 | 4982 ft | 178 kts | 104° |
| 2026-05-05 08:11 | 14.36775 | 120.54059 | 4980 ft | 178 kts | 104° |
| 2026-05-05 08:11 | 14.36460 | 120.55291 | 4978 ft | 177 kts | 104° |
| 2026-05-05 08:11 | 14.36149 | 120.56506 | 4975 ft | 176 kts | 104° |
| 2026-05-05 08:11 | 14.35838 | 120.57720 | 4983 ft | 175 kts | 103° |
| 2026-05-05 08:12 | 14.35528 | 120.58935 | 4969 ft | 175 kts | 103° |
| 2026-05-05 08:12 | 14.35220 | 120.60143 | 4974 ft | 175 kts | 104° |
| 2026-05-05 08:12 | 14.34911 | 120.61353 | 4972 ft | 175 kts | 103° |
| 2026-05-05 08:12 | 14.34602 | 120.62562 | 4984 ft | 175 kts | 104° |
| 2026-05-05 08:13 | 14.34291 | 120.63780 | 4987 ft | 176 kts | 103° |
| 2026-05-05 08:13 | 14.33975 | 120.65019 | 4977 ft | 177 kts | 104° |
| 2026-05-05 08:13 | 14.33667 | 120.66222 | 4981 ft | 176 kts | 104° |
| 2026-05-05 08:13 | 14.33355 | 120.67445 | 4978 ft | 177 kts | 103° |
| 2026-05-05 08:14 | 14.33352 | 120.68670 | 4973 ft | 172 kts | 72° |
| 2026-05-05 08:14 | 14.33801 | 120.69826 | 4952 ft | 177 kts | 70° |
| 2026-05-05 08:14 | 14.34300 | 120.70995 | 4815 ft | 178 kts | 66° |
| 2026-05-05 08:14 | 14.34835 | 120.72102 | 4829 ft | 171 kts | 65° |
| 2026-05-05 08:15 | 14.35407 | 120.73226 | 4802 ft | 178 kts | 64° |
| 2026-05-05 08:15 | 14.35985 | 120.74330 | 4689 ft | 171 kts | 63° |
| 2026-05-05 08:15 | 14.36537 | 120.75354 | 4563 ft | 156 kts | 64° |
| 2026-05-05 08:15 | 14.37054 | 120.76315 | 4483 ft | 151 kts | 64° |
| 2026-05-05 08:16 | 14.37565 | 120.77268 | 4498 ft | 156 kts | 63° |
| 2026-05-05 08:16 | 14.38092 | 120.78249 | 4493 ft | 157 kts | 64° |
| 2026-05-05 08:16 | 14.38626 | 120.79244 | 4373 ft | 159 kts | 63° |
| 2026-05-05 08:16 | 14.39151 | 120.80219 | 4153 ft | 152 kts | 64° |
| 2026-05-05 08:17 | 14.39655 | 120.81156 | 3988 ft | 148 kts | 64° |
| 2026-05-05 08:17 | 14.40164 | 120.82104 | 3800 ft | 153 kts | 63° |
| 2026-05-05 08:17 | 14.40677 | 120.83057 | 3619 ft | 151 kts | 63° |
| 2026-05-05 08:17 | 14.41184 | 120.83998 | 3408 ft | 148 kts | 64° |
| 2026-05-05 08:18 | 14.41684 | 120.84927 | 3236 ft | 148 kts | 64° |
| 2026-05-05 08:18 | 14.42180 | 120.85851 | 3056 ft | 146 kts | 63° |
| 2026-05-05 08:18 | 14.42669 | 120.86758 | 2875 ft | 144 kts | 63° |
| 2026-05-05 08:18 | 14.43156 | 120.87664 | 2672 ft | 140 kts | 64° |
| 2026-05-05 08:19 | 14.43612 | 120.88512 | 2488 ft | 131 kts | 64° |
| 2026-05-05 08:19 | 14.44058 | 120.89343 | 2336 ft | 137 kts | 62° |
| 2026-05-05 08:19 | 14.44525 | 120.90209 | 2164 ft | 139 kts | 63° |
| 2026-05-05 08:19 | 14.44985 | 120.91063 | 1970 ft | 136 kts | 63° |
| 2026-05-05 08:20 | 14.45443 | 120.91917 | 1813 ft | 136 kts | 63° |
| 2026-05-05 08:20 | 14.45902 | 120.92769 | 1636 ft | 134 kts | 64° |
| 2026-05-05 08:20 | 14.46349 | 120.93602 | 1457 ft | 133 kts | 64° |
| 2026-05-05 08:20 | 14.46809 | 120.94458 | 1310 ft | 139 kts | 63° |
| 2026-05-05 08:21 | 14.47273 | 120.95324 | 1116 ft | 136 kts | 65° |
| 2026-05-05 08:21 | 14.47716 | 120.96179 | 964 ft | 135 kts | 62° |
| 2026-05-05 08:21 | 14.48172 | 120.97043 | 797 ft | 139 kts | 63° |
| 2026-05-05 08:21 | 14.48642 | 120.97914 | 568 ft | 140 kts | 62° |
| 2026-05-05 08:22 | 14.49108 | 120.98760 | 396 ft | 133 kts | 60° |
| 2026-05-05 08:22 | 14.49565 | 120.99599 | 225 ft | 135 kts | 63° |
| 2026-05-05 08:22 | 14.50013 | 121.00408 | 90 ft | 132 kts | 62° |
| 2026-05-05 08:22 | 14.50407 | 121.01137 | 66 ft | 90 kts | 60° |
| 2026-05-05 08:23 | 14.50637 | 121.01543 | 64 ft | 58 kts | 60° |
| 2026-05-05 08:23 | 14.50798 | 121.01832 | 64 ft | 37 kts | 60° |
| 2026-05-05 08:23 | 14.50860 | 121.01944 | 64 ft | 11 kts | 60° |
| 2026-05-05 08:23 | 14.50916 | 121.02000 | 66 ft | 11 kts | 17° |
| 2026-05-05 08:24 | 14.50989 | 121.01966 | 70 ft | 13 kts | 316° |
| 2026-05-05 08:24 | 14.51059 | 121.01896 | 61 ft | 15 kts | 315° |
| 2026-05-05 08:24 | 14.51138 | 121.01815 | 65 ft | 17 kts | 315° |
| 2026-05-05 08:24 | 14.51233 | 121.01735 | 67 ft | 18 kts | 346° |
| 2026-05-05 08:25 | 14.51350 | 121.01701 | 65 ft | 19 kts | 316° |
| 2026-05-05 08:25 | 14.51441 | 121.01607 | 64 ft | 19 kts | 315° |
| 2026-05-05 08:25 | 14.51530 | 121.01515 | 63 ft | 18 kts | 315° |
| 2026-05-05 08:25 | 14.51605 | 121.01437 | 64 ft | 11 kts | 313° |
| 2026-05-05 08:26 | 14.51656 | 121.01382 | 65 ft | 11 kts | 316° |
| 2026-05-05 08:26 | 14.51713 | 121.01329 | 68 ft | 11 kts | 316° |
| 2026-05-05 08:26 | 14.51770 | 121.01334 | 66 ft | 8 kts | 35° |
| 2026-05-05 08:26 | 14.51797 | 121.01360 | 74 ft | 0 kts | 45° |